BOV001 KSFO-MPTO
Flight info
| Callsign | BOV001 |
|---|---|
| Flight time | N/A |
| Altitude | 37000 |
| Route | WESLA5 SUSEY DCT EBAYE DCT AVE DCT PDZ J93 PPE UL655 ASOKU UM419 ANSON DCT AROVI VUMAN2C |
| Aircraft | B738/M-SDE2E3FGHIRWXY/LB1 |
Departure
| Time | 2026-05-05 03:08 |
|---|---|
| Airport | San Francisco International Airport (KSFO) |
Arrival
| Time | N/A |
|---|---|
| Airport | Tocumen International Airport (MPTO) |
| Time | Latitude | Longitude | Altitude | Speed | Heading |
|---|---|---|---|---|---|
| 2026-05-05 02:52 | 37.61865 | -122.38173 | 19 ft | 0 kts | 167° |
| 2026-05-05 03:01 | 37.61866 | -122.38173 | 19 ft | 2 kts | 167° |
| 2026-05-05 03:01 | 37.61882 | -122.38177 | 21 ft | 2 kts | 167° |
| 2026-05-05 03:01 | 37.61897 | -122.38182 | 20 ft | 2 kts | 167° |
| 2026-05-05 03:01 | 37.61913 | -122.38186 | 21 ft | 2 kts | 167° |
| 2026-05-05 03:02 | 37.61929 | -122.38191 | 21 ft | 2 kts | 167° |
| 2026-05-05 03:02 | 37.61945 | -122.38196 | 21 ft | 2 kts | 167° |
| 2026-05-05 03:02 | 37.61952 | -122.38198 | 21 ft | 0 kts | 167° |
| 2026-05-05 03:03 | 37.61948 | -122.38197 | 21 ft | 2 kts | 166° |
| 2026-05-05 03:04 | 37.61931 | -122.38172 | 20 ft | 4 kts | 102° |
| 2026-05-05 03:04 | 37.61917 | -122.38097 | 21 ft | 14 kts | 105° |
| 2026-05-05 03:04 | 37.61860 | -122.37949 | 21 ft | 24 kts | 117° |
| 2026-05-05 03:04 | 37.61791 | -122.37737 | 17 ft | 28 kts | 111° |
| 2026-05-05 03:05 | 37.61705 | -122.37464 | 19 ft | 35 kts | 107° |
| 2026-05-05 03:05 | 37.61596 | -122.37218 | 22 ft | 30 kts | 116° |
| 2026-05-05 03:05 | 37.61486 | -122.36958 | 22 ft | 48 kts | 120° |
| 2026-05-05 03:05 | 37.61327 | -122.36619 | 18 ft | 44 kts | 134° |
| 2026-05-05 03:06 | 37.61149 | -122.36255 | 19 ft | 48 kts | 117° |
| 2026-05-05 03:06 | 37.61070 | -122.35954 | 21 ft | 28 kts | 67° |
| 2026-05-05 03:06 | 37.61189 | -122.35893 | 21 ft | 6 kts | 320° |
| 2026-05-05 03:06 | 37.61210 | -122.35938 | 20 ft | 9 kts | 295° |
| 2026-05-05 03:07 | 37.61224 | -122.35973 | 20 ft | 0 kts | 298° |
| 2026-05-05 03:07 | 37.61246 | -122.36022 | 19 ft | 2 kts | 298° |
| 2026-05-05 03:07 | 37.61249 | -122.36029 | 20 ft | 0 kts | 297° |
| 2026-05-05 03:08 | 37.61292 | -122.36127 | 16 ft | 43 kts | 298° |
| 2026-05-05 03:08 | 37.61558 | -122.36761 | 21 ft | 117 kts | 297° |
| 2026-05-05 03:08 | 37.62047 | -122.37899 | 83 ft | 173 kts | 298° |
| 2026-05-05 03:08 | 37.62615 | -122.39238 | 912 ft | 177 kts | 297° |
| 2026-05-05 03:09 | 37.63231 | -122.40644 | 1760 ft | 183 kts | 298° |
| 2026-05-05 03:09 | 37.63818 | -122.42000 | 2935 ft | 172 kts | 297° |
| 2026-05-05 03:09 | 37.64376 | -122.43317 | 3874 ft | 172 kts | 294° |
| 2026-05-05 03:09 | 37.64987 | -122.44681 | 4490 ft | 184 kts | 299° |
| 2026-05-05 03:10 | 37.65668 | -122.46173 | 4807 ft | 209 kts | 296° |
| 2026-05-05 03:10 | 37.66396 | -122.47858 | 4995 ft | 228 kts | 296° |
| 2026-05-05 03:10 | 37.66807 | -122.49843 | 5162 ft | 242 kts | 264° |
| 2026-05-05 03:10 | 37.66288 | -122.51839 | 5458 ft | 245 kts | 232° |
| 2026-05-05 03:11 | 37.64960 | -122.53242 | 5691 ft | 256 kts | 201° |
| 2026-05-05 03:11 | 37.63198 | -122.53584 | 6098 ft | 261 kts | 172° |
| 2026-05-05 03:11 | 37.61447 | -122.53024 | 6607 ft | 265 kts | 161° |
| 2026-05-05 03:11 | 37.59688 | -122.52212 | 7018 ft | 272 kts | 159° |
| 2026-05-05 03:12 | 37.57922 | -122.51374 | 7603 ft | 272 kts | 159° |
| 2026-05-05 03:12 | 37.56119 | -122.50550 | 8002 ft | 279 kts | 159° |
| 2026-05-05 03:12 | 37.54280 | -122.49739 | 8491 ft | 282 kts | 159° |
| 2026-05-05 03:12 | 37.52402 | -122.48926 | 8944 ft | 287 kts | 160° |
| 2026-05-05 03:13 | 37.50492 | -122.48106 | 9371 ft | 293 kts | 160° |
| 2026-05-05 03:13 | 37.48663 | -122.46990 | 9817 ft | 293 kts | 137° |
| 2026-05-05 03:13 | 37.47224 | -122.45189 | 10291 ft | 294 kts | 131° |
| 2026-05-05 03:13 | 37.45802 | -122.43249 | 10411 ft | 309 kts | 130° |
| 2026-05-05 03:14 | 37.44317 | -122.41198 | 10521 ft | 324 kts | 130° |
| 2026-05-05 03:14 | 37.42765 | -122.39057 | 10641 ft | 338 kts | 130° |
| 2026-05-05 03:14 | 37.41151 | -122.36839 | 10733 ft | 350 kts | 130° |
| 2026-05-05 03:14 | 37.39475 | -122.34545 | 10844 ft | 361 kts | 130° |
| 2026-05-05 03:15 | 37.37750 | -122.32192 | 10926 ft | 371 kts | 131° |
| 2026-05-05 03:15 | 37.35999 | -122.29811 | 11013 ft | 380 kts | 131° |
| 2026-05-05 03:15 | 37.34187 | -122.27351 | 11331 ft | 385 kts | 131° |
| 2026-05-05 03:15 | 37.32366 | -122.24884 | 11765 ft | 385 kts | 131° |
| 2026-05-05 03:16 | 37.30540 | -122.22413 | 12201 ft | 387 kts | 131° |
| 2026-05-05 03:16 | 37.28696 | -122.19919 | 12599 ft | 389 kts | 131° |
| 2026-05-05 03:16 | 37.26847 | -122.17420 | 12994 ft | 392 kts | 131° |
| 2026-05-05 03:16 | 37.24990 | -122.14910 | 13437 ft | 393 kts | 130° |
| 2026-05-05 03:17 | 37.23130 | -122.12401 | 13841 ft | 394 kts | 130° |
| 2026-05-05 03:17 | 37.21253 | -122.09870 | 14152 ft | 396 kts | 130° |
| 2026-05-05 03:17 | 37.19376 | -122.07339 | 14537 ft | 397 kts | 130° |
| 2026-05-05 03:17 | 37.17491 | -122.04801 | 14900 ft | 398 kts | 130° |
| 2026-05-05 03:18 | 37.15597 | -122.02254 | 15249 ft | 400 kts | 130° |
| 2026-05-05 03:18 | 37.13700 | -121.99703 | 15580 ft | 401 kts | 130° |
| 2026-05-05 03:18 | 37.11794 | -121.97142 | 15968 ft | 401 kts | 130° |
| 2026-05-05 03:18 | 37.09884 | -121.94577 | 16282 ft | 403 kts | 130° |
| 2026-05-05 03:19 | 37.06084 | -121.89482 | 16935 ft | 406 kts | 130° |
| 2026-05-05 03:19 | 37.04154 | -121.86898 | 17260 ft | 407 kts | 130° |
| 2026-05-05 03:19 | 37.02214 | -121.84301 | 17566 ft | 409 kts | 130° |
| 2026-05-05 03:20 | 37.00267 | -121.81697 | 17874 ft | 411 kts | 130° |
| 2026-05-05 03:20 | 36.98308 | -121.79081 | 18166 ft | 412 kts | 130° |
| 2026-05-05 03:20 | 36.96342 | -121.76456 | 18425 ft | 414 kts | 130° |
| 2026-05-05 03:20 | 36.94368 | -121.73823 | 18680 ft | 415 kts | 130° |
| 2026-05-05 03:21 | 36.92391 | -121.71188 | 18939 ft | 416 kts | 130° |
| 2026-05-05 03:21 | 36.90410 | -121.68550 | 19182 ft | 417 kts | 130° |
| 2026-05-05 03:21 | 36.88418 | -121.65900 | 19429 ft | 418 kts | 130° |
| 2026-05-05 03:21 | 36.86420 | -121.63244 | 19668 ft | 419 kts | 130° |
| 2026-05-05 03:22 | 36.84424 | -121.60592 | 19898 ft | 420 kts | 130° |
| 2026-05-05 03:22 | 36.82416 | -121.57927 | 20143 ft | 420 kts | 130° |
| 2026-05-05 03:22 | 36.80411 | -121.55267 | 20356 ft | 422 kts | 130° |
| 2026-05-05 03:22 | 36.78398 | -121.52599 | 20569 ft | 423 kts | 130° |
| 2026-05-05 03:23 | 36.76379 | -121.49927 | 20770 ft | 424 kts | 130° |
| 2026-05-05 03:23 | 36.74350 | -121.47243 | 20966 ft | 425 kts | 130° |
| 2026-05-05 03:23 | 36.72344 | -121.44591 | 21172 ft | 426 kts | 130° |
| 2026-05-05 03:23 | 36.70283 | -121.41869 | 21390 ft | 427 kts | 130° |
| 2026-05-05 03:24 | 36.68265 | -121.39206 | 21566 ft | 428 kts | 130° |
| 2026-05-05 03:24 | 36.66218 | -121.36506 | 21762 ft | 428 kts | 131° |
| 2026-05-05 03:24 | 36.64163 | -121.33799 | 21956 ft | 429 kts | 131° |
| 2026-05-05 03:24 | 36.62111 | -121.31097 | 22143 ft | 430 kts | 131° |
| 2026-05-05 03:25 | 36.60056 | -121.28394 | 22327 ft | 430 kts | 131° |
| 2026-05-05 03:25 | 36.57994 | -121.25684 | 22484 ft | 432 kts | 131° |
| 2026-05-05 03:25 | 36.55923 | -121.22964 | 22657 ft | 433 kts | 131° |
| 2026-05-05 03:25 | 36.53853 | -121.20247 | 22804 ft | 434 kts | 131° |
| 2026-05-05 03:26 | 36.51772 | -121.17519 | 22944 ft | 435 kts | 131° |
| 2026-05-05 03:26 | 36.49681 | -121.14779 | 23099 ft | 436 kts | 131° |
| 2026-05-05 03:26 | 36.47593 | -121.12045 | 23239 ft | 437 kts | 131° |
| 2026-05-05 03:26 | 36.45497 | -121.09303 | 23357 ft | 438 kts | 132° |
| 2026-05-05 03:27 | 36.43393 | -121.06554 | 23478 ft | 440 kts | 132° |
| 2026-05-05 03:27 | 36.41316 | -121.03753 | 23598 ft | 441 kts | 130° |
| 2026-05-05 03:27 | 36.39302 | -121.00878 | 23717 ft | 441 kts | 129° |
| 2026-05-05 03:27 | 36.37310 | -120.97972 | 23829 ft | 442 kts | 129° |
| 2026-05-05 03:28 | 36.35323 | -120.95063 | 23930 ft | 443 kts | 129° |
| 2026-05-05 03:28 | 36.33322 | -120.92144 | 24027 ft | 444 kts | 129° |
| 2026-05-05 03:28 | 36.31312 | -120.89232 | 24123 ft | 445 kts | 129° |
| 2026-05-05 03:28 | 36.29288 | -120.86315 | 24204 ft | 446 kts | 130° |
| 2026-05-05 03:29 | 36.27287 | -120.83443 | 24304 ft | 447 kts | 130° |
| 2026-05-05 03:29 | 36.25250 | -120.80527 | 24395 ft | 448 kts | 130° |
| 2026-05-05 03:29 | 36.23202 | -120.77599 | 24473 ft | 449 kts | 130° |
| 2026-05-05 03:29 | 36.21156 | -120.74678 | 24556 ft | 450 kts | 130° |
| 2026-05-05 03:30 | 36.19099 | -120.71742 | 24629 ft | 451 kts | 130° |
| 2026-05-05 03:30 | 36.17041 | -120.68807 | 24725 ft | 452 kts | 130° |
| 2026-05-05 03:30 | 36.14975 | -120.65864 | 24826 ft | 452 kts | 130° |
| 2026-05-05 03:30 | 36.12905 | -120.62916 | 24929 ft | 453 kts | 130° |
| 2026-05-05 03:31 | 36.10839 | -120.59977 | 24997 ft | 454 kts | 130° |
| 2026-05-05 03:31 | 36.08787 | -120.57060 | 25096 ft | 454 kts | 131° |
| 2026-05-05 03:31 | 36.06713 | -120.54114 | 25165 ft | 455 kts | 131° |
| 2026-05-05 03:31 | 36.04630 | -120.51158 | 25228 ft | 456 kts | 131° |
| 2026-05-05 03:32 | 36.02544 | -120.48202 | 25287 ft | 457 kts | 131° |
| 2026-05-05 03:32 | 36.00448 | -120.45232 | 25334 ft | 458 kts | 131° |
| 2026-05-05 03:32 | 35.98342 | -120.42252 | 25393 ft | 459 kts | 131° |
| 2026-05-05 03:32 | 35.96240 | -120.39280 | 25459 ft | 460 kts | 131° |
| 2026-05-05 03:33 | 35.94200 | -120.36398 | 25513 ft | 461 kts | 131° |
| 2026-05-05 03:33 | 35.92088 | -120.33416 | 25568 ft | 463 kts | 132° |
| 2026-05-05 03:33 | 35.89958 | -120.30411 | 25698 ft | 467 kts | 132° |
| 2026-05-05 03:33 | 35.87808 | -120.27381 | 26000 ft | 468 kts | 132° |
| 2026-05-05 03:34 | 35.85652 | -120.24379 | 26284 ft | 469 kts | 134° |
| 2026-05-05 03:34 | 35.83403 | -120.21455 | 26503 ft | 471 kts | 135° |
| 2026-05-05 03:34 | 35.81097 | -120.18571 | 26696 ft | 473 kts | 136° |
| 2026-05-05 03:34 | 35.79563 | -120.16668 | 26855 ft | 474 kts | 136° |
| 2026-05-05 03:35 | 35.77246 | -120.13781 | 27186 ft | 473 kts | 136° |
| 2026-05-05 03:35 | 35.74943 | -120.10887 | 27553 ft | 472 kts | 135° |
| 2026-05-05 03:35 | 35.72659 | -120.07996 | 27879 ft | 471 kts | 135° |
| 2026-05-05 03:35 | 35.70375 | -120.05095 | 28163 ft | 472 kts | 136° |
| 2026-05-05 03:36 | 35.68086 | -120.02190 | 28445 ft | 472 kts | 136° |
| 2026-05-05 03:36 | 35.65797 | -119.99291 | 28764 ft | 472 kts | 136° |
| 2026-05-05 03:36 | 35.63558 | -119.96356 | 29095 ft | 472 kts | 133° |
| 2026-05-05 03:36 | 35.61409 | -119.93309 | 29402 ft | 472 kts | 132° |
| 2026-05-05 03:37 | 35.59305 | -119.90210 | 29683 ft | 472 kts | 131° |
| 2026-05-05 03:37 | 35.57213 | -119.87090 | 29968 ft | 473 kts | 131° |
| 2026-05-05 03:37 | 35.55123 | -119.83971 | 30242 ft | 472 kts | 132° |
| 2026-05-05 03:37 | 35.53053 | -119.80901 | 30465 ft | 472 kts | 132° |
| 2026-05-05 03:38 | 35.50946 | -119.77796 | 30668 ft | 473 kts | 133° |
| 2026-05-05 03:38 | 35.48834 | -119.74702 | 30887 ft | 473 kts | 133° |
| 2026-05-05 03:38 | 35.46715 | -119.71609 | 31121 ft | 472 kts | 133° |
| 2026-05-05 03:38 | 35.44599 | -119.68529 | 31359 ft | 472 kts | 134° |
| 2026-05-05 03:39 | 35.42483 | -119.65452 | 31574 ft | 472 kts | 134° |
| 2026-05-05 03:39 | 35.40364 | -119.62376 | 31770 ft | 472 kts | 134° |
| 2026-05-05 03:39 | 35.38245 | -119.59301 | 31970 ft | 472 kts | 134° |
| 2026-05-05 03:39 | 35.36123 | -119.56224 | 32193 ft | 472 kts | 134° |
| 2026-05-05 03:40 | 35.34022 | -119.53179 | 32390 ft | 472 kts | 135° |
| 2026-05-05 03:40 | 35.31899 | -119.50106 | 32566 ft | 472 kts | 135° |
| 2026-05-05 03:40 | 35.29778 | -119.47037 | 32779 ft | 472 kts | 135° |
| 2026-05-05 03:40 | 35.27662 | -119.43978 | 32993 ft | 471 kts | 135° |
| 2026-05-05 03:41 | 35.25539 | -119.40911 | 33193 ft | 471 kts | 135° |
| 2026-05-05 03:41 | 35.23418 | -119.37851 | 33374 ft | 472 kts | 135° |
| 2026-05-05 03:41 | 35.21300 | -119.34797 | 33566 ft | 471 kts | 135° |
| 2026-05-05 03:41 | 35.19177 | -119.31740 | 33773 ft | 471 kts | 136° |
| 2026-05-05 03:42 | 35.17054 | -119.28684 | 33964 ft | 471 kts | 136° |
| 2026-05-05 03:42 | 35.14936 | -119.25639 | 34113 ft | 470 kts | 136° |
| 2026-05-05 03:42 | 35.12841 | -119.22629 | 34264 ft | 470 kts | 136° |
| 2026-05-05 03:42 | 35.10696 | -119.19550 | 34435 ft | 469 kts | 136° |
| 2026-05-05 03:43 | 35.08586 | -119.16523 | 34598 ft | 469 kts | 136° |
| 2026-05-05 03:43 | 35.06473 | -119.13496 | 34740 ft | 468 kts | 137° |
| 2026-05-05 03:43 | 35.04360 | -119.10471 | 34884 ft | 468 kts | 137° |
| 2026-05-05 03:43 | 35.02247 | -119.07449 | 34975 ft | 467 kts | 137° |
| 2026-05-05 03:44 | 34.98017 | -119.01408 | 34993 ft | 468 kts | 137° |
| 2026-05-05 03:44 | 34.93795 | -118.95386 | 34990 ft | 467 kts | 138° |
| 2026-05-05 03:45 | 34.89580 | -118.89386 | 34998 ft | 466 kts | 138° |
| 2026-05-05 03:45 | 34.85376 | -118.83413 | 34997 ft | 466 kts | 139° |
| 2026-05-05 03:46 | 34.81153 | -118.77422 | 34999 ft | 466 kts | 139° |
| 2026-05-05 03:46 | 34.76925 | -118.71434 | 34988 ft | 465 kts | 139° |
| 2026-05-05 03:47 | 34.72716 | -118.65481 | 34990 ft | 463 kts | 140° |
| 2026-05-05 03:47 | 34.68518 | -118.59556 | 34996 ft | 462 kts | 140° |
| 2026-05-05 03:48 | 34.64314 | -118.53635 | 35001 ft | 462 kts | 140° |
| 2026-05-05 03:48 | 34.60139 | -118.47763 | 35002 ft | 462 kts | 140° |
| 2026-05-05 03:49 | 34.55910 | -118.41825 | 35000 ft | 461 kts | 141° |
| 2026-05-05 03:49 | 34.51733 | -118.35970 | 34994 ft | 462 kts | 141° |
| 2026-05-05 03:50 | 34.47525 | -118.30079 | 34994 ft | 461 kts | 142° |
| 2026-05-05 03:50 | 34.43341 | -118.24232 | 34994 ft | 460 kts | 142° |
| 2026-05-05 03:51 | 34.39143 | -118.18378 | 35006 ft | 460 kts | 142° |
| 2026-05-05 03:51 | 34.34950 | -118.12538 | 35005 ft | 459 kts | 143° |
| 2026-05-05 03:52 | 34.30753 | -118.06705 | 35007 ft | 460 kts | 143° |
| 2026-05-05 03:52 | 34.26545 | -118.00868 | 35010 ft | 461 kts | 143° |
| 2026-05-05 03:53 | 34.22323 | -117.95022 | 35024 ft | 461 kts | 143° |
| 2026-05-05 03:53 | 34.18114 | -117.89198 | 35029 ft | 463 kts | 143° |
| 2026-05-05 03:54 | 34.13875 | -117.83340 | 35035 ft | 464 kts | 144° |
| 2026-05-05 03:54 | 34.09622 | -117.77474 | 35036 ft | 463 kts | 144° |
| 2026-05-05 03:55 | 34.05372 | -117.71623 | 35024 ft | 463 kts | 144° |
| 2026-05-05 03:55 | 34.01121 | -117.65781 | 35034 ft | 463 kts | 144° |
| 2026-05-05 03:56 | 33.96869 | -117.59946 | 35032 ft | 463 kts | 144° |
| 2026-05-05 03:56 | 33.92639 | -117.54150 | 35017 ft | 463 kts | 144° |
| 2026-05-05 03:57 | 33.88284 | -117.48515 | 35009 ft | 457 kts | 147° |
| 2026-05-05 03:57 | 33.83815 | -117.43101 | 35023 ft | 455 kts | 148° |
| 2026-05-05 03:58 | 33.79349 | -117.37706 | 35005 ft | 455 kts | 148° |
| 2026-05-05 03:58 | 33.74892 | -117.32279 | 35008 ft | 456 kts | 147° |
| 2026-05-05 03:59 | 33.70433 | -117.26833 | 35005 ft | 457 kts | 147° |
| 2026-05-05 03:59 | 33.65968 | -117.21383 | 35016 ft | 457 kts | 147° |
| 2026-05-05 04:00 | 33.61502 | -117.15941 | 35028 ft | 457 kts | 147° |
| 2026-05-05 04:00 | 33.57037 | -117.10512 | 35035 ft | 457 kts | 147° |
| 2026-05-05 04:01 | 33.52594 | -117.05119 | 35024 ft | 457 kts | 147° |
| 2026-05-05 04:01 | 33.48130 | -116.99705 | 35010 ft | 456 kts | 147° |
| 2026-05-05 04:02 | 33.43673 | -116.94308 | 35007 ft | 454 kts | 147° |
| 2026-05-05 04:02 | 33.39228 | -116.88936 | 35002 ft | 453 kts | 147° |
| 2026-05-05 04:03 | 33.34790 | -116.83581 | 35024 ft | 453 kts | 148° |
| 2026-05-05 04:03 | 33.30350 | -116.78235 | 35018 ft | 453 kts | 147° |
| 2026-05-05 04:04 | 33.25908 | -116.72890 | 35027 ft | 453 kts | 148° |
| 2026-05-05 04:04 | 33.21452 | -116.67539 | 35029 ft | 455 kts | 148° |
| 2026-05-05 04:05 | 33.16984 | -116.62177 | 35023 ft | 456 kts | 148° |
| 2026-05-05 04:05 | 33.12726 | -116.56408 | 35027 ft | 480 kts | 135° |
| 2026-05-05 04:06 | 33.09180 | -116.49569 | 35002 ft | 487 kts | 133° |
| 2026-05-05 04:06 | 33.05689 | -116.42618 | 34989 ft | 488 kts | 134° |
| 2026-05-05 04:07 | 33.02154 | -116.35701 | 35008 ft | 490 kts | 134° |
| 2026-05-05 04:07 | 32.98581 | -116.28812 | 35004 ft | 492 kts | 134° |
| 2026-05-05 04:08 | 32.94973 | -116.21880 | 34993 ft | 493 kts | 134° |
| 2026-05-05 04:08 | 32.91358 | -116.14943 | 34989 ft | 492 kts | 134° |
| 2026-05-05 04:09 | 32.87754 | -116.08036 | 35000 ft | 491 kts | 134° |
| 2026-05-05 04:09 | 32.84141 | -116.01128 | 34984 ft | 491 kts | 133° |
| 2026-05-05 04:10 | 32.80527 | -115.94232 | 34983 ft | 491 kts | 134° |
| 2026-05-05 04:10 | 32.76916 | -115.87351 | 34968 ft | 490 kts | 134° |
| 2026-05-05 04:11 | 32.73312 | -115.80496 | 34976 ft | 489 kts | 134° |
| 2026-05-05 04:11 | 32.69701 | -115.73641 | 34982 ft | 489 kts | 134° |
| 2026-05-05 04:12 | 32.66086 | -115.66791 | 34969 ft | 489 kts | 134° |
| 2026-05-05 04:12 | 32.62463 | -115.59955 | 34962 ft | 490 kts | 134° |
| 2026-05-05 04:13 | 32.58819 | -115.53115 | 34937 ft | 491 kts | 134° |
| 2026-05-05 04:13 | 32.55167 | -115.46266 | 34943 ft | 492 kts | 134° |
| 2026-05-05 04:14 | 32.51505 | -115.39406 | 34937 ft | 493 kts | 134° |
| 2026-05-05 04:14 | 32.47831 | -115.32534 | 34948 ft | 494 kts | 134° |
| 2026-05-05 04:15 | 32.44147 | -115.25657 | 34933 ft | 495 kts | 134° |
| 2026-05-05 04:15 | 32.40450 | -115.18766 | 34928 ft | 495 kts | 134° |
| 2026-05-05 04:16 | 32.36747 | -115.11876 | 34917 ft | 496 kts | 135° |
| 2026-05-05 04:16 | 32.33070 | -115.05049 | 34910 ft | 495 kts | 135° |
| 2026-05-05 04:17 | 32.29365 | -114.98177 | 34899 ft | 495 kts | 135° |
| 2026-05-05 04:17 | 32.26285 | -114.92472 | 34897 ft | 494 kts | 135° |
| 2026-05-05 04:18 | 32.22591 | -114.85638 | 34887 ft | 493 kts | 135° |
| 2026-05-05 04:18 | 32.18889 | -114.78801 | 34887 ft | 492 kts | 135° |
| 2026-05-05 04:19 | 32.15194 | -114.71991 | 34873 ft | 492 kts | 135° |
| 2026-05-05 04:19 | 32.11498 | -114.65192 | 34880 ft | 492 kts | 136° |
| 2026-05-05 04:20 | 32.07816 | -114.58431 | 34868 ft | 493 kts | 136° |
| 2026-05-05 04:20 | 32.04105 | -114.51631 | 34866 ft | 494 kts | 136° |
| 2026-05-05 04:21 | 32.00376 | -114.44811 | 34869 ft | 496 kts | 136° |
| 2026-05-05 04:21 | 31.96631 | -114.37968 | 34859 ft | 497 kts | 136° |
| 2026-05-05 04:22 | 31.92870 | -114.31111 | 34864 ft | 499 kts | 136° |
| 2026-05-05 04:22 | 31.89117 | -114.24282 | 34865 ft | 501 kts | 135° |
| 2026-05-05 04:23 | 31.85319 | -114.17381 | 34858 ft | 503 kts | 135° |
| 2026-05-05 04:23 | 31.81503 | -114.10458 | 34874 ft | 505 kts | 135° |
| 2026-05-05 04:24 | 31.77673 | -114.03523 | 34881 ft | 506 kts | 135° |
| 2026-05-05 04:25 | 31.71906 | -113.93103 | 34893 ft | 508 kts | 135° |
| 2026-05-05 04:25 | 31.68070 | -113.86188 | 34905 ft | 508 kts | 135° |
| 2026-05-05 04:26 | 31.64210 | -113.79242 | 34917 ft | 508 kts | 135° |
| 2026-05-05 04:26 | 31.60346 | -113.72302 | 34928 ft | 507 kts | 135° |
| 2026-05-05 04:27 | 31.56483 | -113.65376 | 34922 ft | 507 kts | 135° |
| 2026-05-05 04:27 | 31.52626 | -113.58474 | 34930 ft | 506 kts | 135° |
| 2026-05-05 04:28 | 31.48769 | -113.51585 | 34934 ft | 505 kts | 135° |
| 2026-05-05 04:28 | 31.44910 | -113.44705 | 34935 ft | 505 kts | 135° |
| 2026-05-05 04:29 | 31.41049 | -113.37831 | 34938 ft | 505 kts | 135° |
| 2026-05-05 04:29 | 31.37186 | -113.30965 | 34944 ft | 505 kts | 135° |
| 2026-05-05 04:30 | 31.33388 | -113.24017 | 34949 ft | 508 kts | 133° |
| 2026-05-05 04:30 | 31.29692 | -113.16998 | 34945 ft | 510 kts | 132° |
| 2026-05-05 04:31 | 31.25964 | -113.09921 | 34944 ft | 511 kts | 132° |
| 2026-05-05 04:31 | 31.22206 | -113.02845 | 34947 ft | 513 kts | 132° |
| 2026-05-05 04:32 | 31.18430 | -112.95774 | 34947 ft | 514 kts | 132° |
| 2026-05-05 04:32 | 31.14633 | -112.88679 | 34953 ft | 515 kts | 132° |
| 2026-05-05 04:33 | 31.10824 | -112.81572 | 34944 ft | 516 kts | 132° |
| 2026-05-05 04:33 | 31.07034 | -112.74512 | 34949 ft | 517 kts | 132° |
| 2026-05-05 04:34 | 31.03212 | -112.67404 | 34957 ft | 517 kts | 131° |
| 2026-05-05 04:34 | 30.99380 | -112.60292 | 34952 ft | 518 kts | 131° |
| 2026-05-05 04:35 | 30.95541 | -112.53179 | 34945 ft | 518 kts | 131° |
| 2026-05-05 04:35 | 30.91700 | -112.46075 | 34944 ft | 518 kts | 131° |
| 2026-05-05 04:36 | 30.87854 | -112.38975 | 34940 ft | 518 kts | 131° |
| 2026-05-05 04:36 | 30.84006 | -112.31885 | 34942 ft | 518 kts | 131° |
| 2026-05-05 04:37 | 30.80155 | -112.24802 | 34940 ft | 518 kts | 131° |
| 2026-05-05 04:37 | 30.76302 | -112.17728 | 34934 ft | 518 kts | 131° |
| 2026-05-05 04:38 | 30.72443 | -112.10658 | 34936 ft | 518 kts | 131° |
| 2026-05-05 04:38 | 30.68579 | -112.03590 | 34930 ft | 518 kts | 131° |
| 2026-05-05 04:39 | 30.64711 | -111.96524 | 34929 ft | 518 kts | 131° |
| 2026-05-05 04:39 | 30.60858 | -111.89502 | 34930 ft | 519 kts | 131° |
| 2026-05-05 04:40 | 30.56975 | -111.82438 | 34922 ft | 519 kts | 131° |
| 2026-05-05 04:40 | 30.53086 | -111.75373 | 34936 ft | 520 kts | 131° |
| 2026-05-05 04:41 | 30.49183 | -111.68297 | 34937 ft | 521 kts | 131° |
| 2026-05-05 04:41 | 30.45271 | -111.61218 | 34938 ft | 521 kts | 131° |
| 2026-05-05 04:42 | 30.41351 | -111.54134 | 34913 ft | 522 kts | 131° |
| 2026-05-05 04:42 | 30.37426 | -111.47056 | 34939 ft | 523 kts | 131° |
| 2026-05-05 04:43 | 30.33511 | -111.40008 | 34932 ft | 523 kts | 130° |
| 2026-05-05 04:43 | 30.29565 | -111.32914 | 34930 ft | 524 kts | 130° |
| 2026-05-05 04:44 | 30.25612 | -111.25824 | 34929 ft | 524 kts | 130° |
| 2026-05-05 04:44 | 30.21652 | -111.18732 | 34933 ft | 525 kts | 130° |
| 2026-05-05 04:45 | 30.17685 | -111.11639 | 34937 ft | 526 kts | 130° |
| 2026-05-05 04:45 | 30.13704 | -111.04531 | 34930 ft | 527 kts | 130° |
| 2026-05-05 04:46 | 30.09738 | -110.97458 | 34933 ft | 527 kts | 130° |
| 2026-05-05 04:46 | 30.05756 | -110.90330 | 34925 ft | 528 kts | 130° |
| 2026-05-05 04:47 | 30.01767 | -110.83188 | 34930 ft | 529 kts | 130° |
| 2026-05-05 04:47 | 29.97766 | -110.76041 | 34928 ft | 530 kts | 130° |
| 2026-05-05 04:48 | 29.93752 | -110.68886 | 34918 ft | 530 kts | 130° |
| 2026-05-05 04:48 | 29.89743 | -110.61751 | 34931 ft | 530 kts | 129° |
| 2026-05-05 04:49 | 29.85737 | -110.54636 | 34933 ft | 530 kts | 129° |
| 2026-05-05 04:49 | 29.81745 | -110.47559 | 34932 ft | 530 kts | 130° |
| 2026-05-05 04:50 | 29.77727 | -110.40448 | 34933 ft | 530 kts | 129° |
| 2026-05-05 04:50 | 29.73701 | -110.33337 | 34939 ft | 530 kts | 129° |
| 2026-05-05 04:51 | 29.69667 | -110.26221 | 34932 ft | 530 kts | 129° |
| 2026-05-05 04:51 | 29.65641 | -110.19131 | 34943 ft | 529 kts | 129° |
| 2026-05-05 04:52 | 29.61608 | -110.12042 | 34944 ft | 528 kts | 129° |
| 2026-05-05 04:52 | 29.57604 | -110.05019 | 34938 ft | 529 kts | 129° |
| 2026-05-05 04:53 | 29.53561 | -109.97941 | 34952 ft | 530 kts | 129° |
| 2026-05-05 04:53 | 29.49508 | -109.90856 | 34951 ft | 531 kts | 129° |
| 2026-05-05 04:54 | 29.45446 | -109.83764 | 34946 ft | 532 kts | 129° |
| 2026-05-05 04:54 | 29.41435 | -109.76728 | 34995 ft | 513 kts | 133° |
| 2026-05-05 04:54 | 29.39507 | -109.73350 | 34928 ft | 499 kts | 134° |
| 2026-05-05 04:55 | 29.37619 | -109.70057 | 34945 ft | 491 kts | 134° |
| 2026-05-05 04:55 | 29.33851 | -109.63554 | 34948 ft | 495 kts | 134° |
| 2026-05-05 04:56 | 29.30013 | -109.56943 | 34960 ft | 501 kts | 134° |
| 2026-05-05 04:56 | 29.26135 | -109.50244 | 34958 ft | 505 kts | 134° |
| 2026-05-05 04:57 | 29.22262 | -109.43536 | 34944 ft | 504 kts | 134° |
| 2026-05-05 04:57 | 29.18409 | -109.36871 | 34939 ft | 500 kts | 134° |
| 2026-05-05 04:58 | 29.14606 | -109.30315 | 34944 ft | 496 kts | 134° |
| 2026-05-05 04:58 | 29.10787 | -109.23749 | 34968 ft | 495 kts | 134° |
| 2026-05-05 04:59 | 29.06942 | -109.17161 | 34972 ft | 501 kts | 134° |
| 2026-05-05 04:59 | 29.03055 | -109.10503 | 34986 ft | 505 kts | 134° |
| 2026-05-05 05:00 | 28.99138 | -109.03795 | 34984 ft | 509 kts | 134° |
| 2026-05-05 05:00 | 28.95228 | -108.97105 | 34989 ft | 508 kts | 134° |
| 2026-05-05 05:01 | 28.91346 | -108.90460 | 34993 ft | 498 kts | 134° |
| 2026-05-05 05:01 | 28.87487 | -108.83887 | 35008 ft | 497 kts | 134° |
| 2026-05-05 05:02 | 28.83633 | -108.77340 | 35003 ft | 497 kts | 134° |
| 2026-05-05 05:02 | 28.79776 | -108.70792 | 34981 ft | 497 kts | 134° |
| 2026-05-05 05:03 | 28.75917 | -108.64245 | 35008 ft | 498 kts | 133° |
| 2026-05-05 05:03 | 28.72048 | -108.57693 | 35033 ft | 500 kts | 133° |
| 2026-05-05 05:04 | 28.68805 | -108.52214 | 35037 ft | 503 kts | 133° |
| 2026-05-05 05:04 | 28.64243 | -108.44520 | 35037 ft | 505 kts | 133° |
| 2026-05-05 05:05 | 28.60960 | -108.39012 | 35042 ft | 506 kts | 133° |
| 2026-05-05 05:05 | 28.57004 | -108.32383 | 35042 ft | 506 kts | 133° |
| 2026-05-05 05:06 | 28.53053 | -108.25767 | 35031 ft | 505 kts | 133° |
| 2026-05-05 05:06 | 28.49132 | -108.19200 | 35023 ft | 498 kts | 133° |
| 2026-05-05 05:07 | 28.45226 | -108.12682 | 35035 ft | 499 kts | 133° |
| 2026-05-05 05:07 | 28.41306 | -108.06157 | 35031 ft | 501 kts | 133° |
| 2026-05-05 05:08 | 28.37362 | -107.99595 | 35041 ft | 503 kts | 133° |
| 2026-05-05 05:08 | 28.33409 | -107.93023 | 35032 ft | 504 kts | 133° |
| 2026-05-05 05:09 | 28.29469 | -107.86489 | 35039 ft | 506 kts | 133° |
| 2026-05-05 05:09 | 28.25488 | -107.79889 | 35042 ft | 506 kts | 133° |
| 2026-05-05 05:10 | 28.21509 | -107.73301 | 35039 ft | 506 kts | 133° |
| 2026-05-05 05:10 | 28.17534 | -107.66733 | 35040 ft | 504 kts | 133° |
| 2026-05-05 05:11 | 28.13571 | -107.60198 | 35042 ft | 502 kts | 133° |
| 2026-05-05 05:11 | 28.09613 | -107.53684 | 35015 ft | 501 kts | 133° |
| 2026-05-05 05:12 | 28.05667 | -107.47197 | 35034 ft | 499 kts | 133° |
| 2026-05-05 05:12 | 28.01730 | -107.40737 | 35034 ft | 499 kts | 133° |
| 2026-05-05 05:13 | 27.97787 | -107.34278 | 35033 ft | 499 kts | 133° |
| 2026-05-05 05:13 | 27.93836 | -107.27811 | 35027 ft | 500 kts | 133° |
| 2026-05-05 05:14 | 27.89871 | -107.21335 | 35017 ft | 502 kts | 133° |
| 2026-05-05 05:14 | 27.85895 | -107.14845 | 35017 ft | 502 kts | 133° |
| 2026-05-05 05:15 | 27.81936 | -107.08394 | 35007 ft | 503 kts | 133° |
| 2026-05-05 05:15 | 27.77932 | -107.01880 | 35008 ft | 504 kts | 133° |
| 2026-05-05 05:16 | 27.73924 | -106.95370 | 34997 ft | 506 kts | 133° |
| 2026-05-05 05:16 | 27.69901 | -106.88842 | 34990 ft | 507 kts | 133° |
| 2026-05-05 05:17 | 27.65892 | -106.82340 | 34975 ft | 504 kts | 133° |
| 2026-05-05 05:17 | 27.61875 | -106.75848 | 34972 ft | 504 kts | 133° |
| 2026-05-05 05:18 | 27.57886 | -106.69406 | 34964 ft | 504 kts | 133° |
| 2026-05-05 05:18 | 27.53864 | -106.62924 | 34967 ft | 504 kts | 133° |
| 2026-05-05 05:19 | 27.49836 | -106.56440 | 34976 ft | 505 kts | 133° |
| 2026-05-05 05:19 | 27.45804 | -106.49954 | 34986 ft | 504 kts | 133° |
| 2026-05-05 05:20 | 27.41767 | -106.43473 | 34965 ft | 504 kts | 133° |
| 2026-05-05 05:20 | 27.37737 | -106.37016 | 34958 ft | 504 kts | 133° |
| 2026-05-05 05:21 | 27.33724 | -106.30593 | 34965 ft | 505 kts | 133° |
| 2026-05-05 05:21 | 27.29674 | -106.24120 | 34960 ft | 506 kts | 133° |
| 2026-05-05 05:22 | 27.25610 | -106.17635 | 34964 ft | 508 kts | 132° |
| 2026-05-05 05:22 | 27.21532 | -106.11137 | 34956 ft | 509 kts | 132° |
| 2026-05-05 05:23 | 27.17448 | -106.04636 | 34955 ft | 509 kts | 132° |
| 2026-05-05 05:23 | 27.13366 | -105.98149 | 34961 ft | 508 kts | 132° |
| 2026-05-05 05:24 | 27.09309 | -105.91710 | 34961 ft | 508 kts | 132° |
| 2026-05-05 05:24 | 27.05223 | -105.85236 | 34959 ft | 507 kts | 132° |
| 2026-05-05 05:25 | 27.01147 | -105.78786 | 34958 ft | 506 kts | 131° |
| 2026-05-05 05:25 | 26.97073 | -105.72349 | 34945 ft | 505 kts | 132° |
| 2026-05-05 05:26 | 26.93009 | -105.65938 | 34938 ft | 503 kts | 132° |
| 2026-05-05 05:26 | 26.88953 | -105.59550 | 34944 ft | 502 kts | 132° |
| 2026-05-05 05:27 | 26.84935 | -105.53230 | 34942 ft | 501 kts | 132° |
| 2026-05-05 05:27 | 26.78877 | -105.43718 | 34930 ft | 499 kts | 132° |
| 2026-05-05 05:28 | 26.74845 | -105.37399 | 34929 ft | 498 kts | 132° |
| 2026-05-05 05:28 | 26.70814 | -105.31088 | 34929 ft | 498 kts | 132° |
| 2026-05-05 05:29 | 26.66779 | -105.24783 | 34926 ft | 498 kts | 131° |
| 2026-05-05 05:29 | 26.62751 | -105.18494 | 34922 ft | 498 kts | 131° |
| 2026-05-05 05:30 | 26.58715 | -105.12204 | 34930 ft | 498 kts | 131° |
| 2026-05-05 05:30 | 26.54667 | -105.05904 | 34919 ft | 498 kts | 131° |
| 2026-05-05 05:31 | 26.50647 | -104.99655 | 34921 ft | 499 kts | 131° |
| 2026-05-05 05:31 | 26.46596 | -104.93366 | 34928 ft | 499 kts | 131° |
| 2026-05-05 05:32 | 26.42537 | -104.87075 | 34916 ft | 500 kts | 131° |
| 2026-05-05 05:32 | 26.38468 | -104.80776 | 34918 ft | 500 kts | 131° |
| 2026-05-05 05:33 | 26.34399 | -104.74484 | 34920 ft | 500 kts | 131° |
| 2026-05-05 05:33 | 26.30356 | -104.68243 | 34911 ft | 499 kts | 131° |
| 2026-05-05 05:34 | 26.26285 | -104.61967 | 34916 ft | 499 kts | 131° |
| 2026-05-05 05:34 | 26.22213 | -104.55699 | 34910 ft | 499 kts | 131° |
| 2026-05-05 05:35 | 26.18141 | -104.49439 | 34904 ft | 498 kts | 131° |
| 2026-05-05 05:35 | 26.14074 | -104.43193 | 34913 ft | 498 kts | 131° |
| 2026-05-05 05:36 | 26.10000 | -104.36948 | 34907 ft | 498 kts | 131° |
| 2026-05-05 05:36 | 26.05959 | -104.30760 | 34905 ft | 497 kts | 131° |
| 2026-05-05 05:37 | 26.01889 | -104.24537 | 34907 ft | 497 kts | 131° |
| 2026-05-05 05:37 | 25.97818 | -104.18321 | 34904 ft | 496 kts | 131° |
| 2026-05-05 05:38 | 25.93752 | -104.12119 | 34904 ft | 496 kts | 131° |
| 2026-05-05 05:38 | 25.89680 | -104.05919 | 34898 ft | 496 kts | 131° |
| 2026-05-05 05:39 | 25.85640 | -103.99774 | 34903 ft | 495 kts | 131° |
| 2026-05-05 05:39 | 25.81572 | -103.93596 | 34896 ft | 495 kts | 131° |
| 2026-05-05 05:40 | 25.77496 | -103.87413 | 34896 ft | 495 kts | 130° |
| 2026-05-05 05:40 | 25.73430 | -103.81253 | 34901 ft | 495 kts | 130° |
| 2026-05-05 05:41 | 25.69344 | -103.75072 | 34895 ft | 496 kts | 130° |
| 2026-05-05 05:41 | 25.65289 | -103.68946 | 34892 ft | 497 kts | 130° |
| 2026-05-05 05:42 | 25.61189 | -103.62757 | 34891 ft | 497 kts | 130° |
| 2026-05-05 05:42 | 25.57089 | -103.56579 | 34879 ft | 498 kts | 130° |
| 2026-05-05 05:43 | 25.52988 | -103.50408 | 34884 ft | 497 kts | 130° |
| 2026-05-05 05:43 | 25.48879 | -103.44234 | 34889 ft | 498 kts | 130° |
| 2026-05-05 05:44 | 25.44766 | -103.38059 | 34879 ft | 498 kts | 130° |
| 2026-05-05 05:44 | 25.40648 | -103.31888 | 34878 ft | 498 kts | 130° |
| 2026-05-05 05:45 | 25.36562 | -103.25769 | 34882 ft | 497 kts | 130° |
| 2026-05-05 05:45 | 25.32453 | -103.19626 | 34883 ft | 497 kts | 130° |
| 2026-05-05 05:46 | 25.28336 | -103.13479 | 34884 ft | 497 kts | 130° |
| 2026-05-05 05:46 | 25.24220 | -103.07341 | 34884 ft | 497 kts | 130° |
| 2026-05-05 05:47 | 25.20101 | -103.01207 | 34879 ft | 497 kts | 130° |
| 2026-05-05 05:47 | 25.15982 | -102.95080 | 34884 ft | 497 kts | 130° |
| 2026-05-05 05:48 | 25.11854 | -102.88948 | 34883 ft | 497 kts | 130° |
| 2026-05-05 05:48 | 25.07748 | -102.82857 | 34892 ft | 497 kts | 130° |
| 2026-05-05 05:49 | 25.03611 | -102.76727 | 34880 ft | 498 kts | 130° |
| 2026-05-05 05:49 | 24.99476 | -102.70607 | 34890 ft | 497 kts | 130° |
| 2026-05-05 05:50 | 24.95341 | -102.64496 | 34891 ft | 497 kts | 130° |
| 2026-05-05 05:50 | 24.91206 | -102.58392 | 34883 ft | 497 kts | 130° |
| 2026-05-05 05:51 | 24.87068 | -102.52292 | 34884 ft | 496 kts | 130° |
| 2026-05-05 05:51 | 24.82934 | -102.46206 | 34889 ft | 496 kts | 130° |
| 2026-05-05 05:52 | 24.79498 | -102.41154 | 34884 ft | 496 kts | 130° |
| 2026-05-05 05:52 | 24.74689 | -102.34091 | 34890 ft | 495 kts | 130° |
| 2026-05-05 05:53 | 24.70553 | -102.28025 | 34899 ft | 495 kts | 130° |
| 2026-05-05 05:53 | 24.66415 | -102.21962 | 34897 ft | 495 kts | 130° |
| 2026-05-05 05:54 | 24.62971 | -102.16924 | 34889 ft | 496 kts | 130° |
| 2026-05-05 05:54 | 24.58836 | -102.10879 | 34897 ft | 495 kts | 130° |
| 2026-05-05 05:55 | 24.54692 | -102.04830 | 34901 ft | 494 kts | 129° |
| 2026-05-05 05:55 | 24.50551 | -101.98793 | 34896 ft | 495 kts | 129° |
| 2026-05-05 05:56 | 24.46415 | -101.92771 | 34902 ft | 494 kts | 129° |
| 2026-05-05 05:56 | 24.42264 | -101.86733 | 34900 ft | 494 kts | 129° |
| 2026-05-05 05:57 | 24.38140 | -101.80742 | 34907 ft | 494 kts | 129° |
| 2026-05-05 05:57 | 24.33986 | -101.74716 | 34902 ft | 495 kts | 129° |
| 2026-05-05 05:58 | 24.29841 | -101.68709 | 34913 ft | 494 kts | 129° |
| 2026-05-05 05:58 | 24.25684 | -101.62692 | 34905 ft | 494 kts | 129° |
| 2026-05-05 05:59 | 24.21528 | -101.56684 | 34915 ft | 493 kts | 129° |
| 2026-05-05 05:59 | 24.17409 | -101.50735 | 34916 ft | 493 kts | 129° |
| 2026-05-05 06:00 | 24.13118 | -101.44910 | 34920 ft | 491 kts | 133° |
| 2026-05-05 06:00 | 24.08585 | -101.39310 | 34927 ft | 490 kts | 134° |
| 2026-05-05 06:01 | 24.04042 | -101.33739 | 34931 ft | 489 kts | 133° |
| 2026-05-05 06:01 | 23.99537 | -101.28157 | 34933 ft | 489 kts | 133° |
| 2026-05-05 06:02 | 23.95049 | -101.22567 | 34943 ft | 489 kts | 133° |
| 2026-05-05 06:02 | 23.90562 | -101.16980 | 34940 ft | 489 kts | 133° |
| 2026-05-05 06:03 | 23.86095 | -101.11426 | 34945 ft | 489 kts | 133° |
| 2026-05-05 06:03 | 23.81604 | -101.05850 | 34950 ft | 489 kts | 133° |
| 2026-05-05 06:04 | 23.77111 | -101.00280 | 34961 ft | 489 kts | 133° |
| 2026-05-05 06:04 | 23.72606 | -100.94701 | 34970 ft | 489 kts | 133° |
| 2026-05-05 06:05 | 23.68102 | -100.89129 | 34970 ft | 490 kts | 133° |
| 2026-05-05 06:05 | 23.63582 | -100.83544 | 34973 ft | 490 kts | 133° |
| 2026-05-05 06:06 | 23.59094 | -100.78002 | 34972 ft | 489 kts | 133° |
| 2026-05-05 06:06 | 23.54592 | -100.72451 | 34993 ft | 489 kts | 133° |
| 2026-05-05 06:07 | 23.50082 | -100.66895 | 34996 ft | 489 kts | 133° |
| 2026-05-05 06:07 | 23.45566 | -100.61341 | 34998 ft | 490 kts | 133° |
| 2026-05-05 06:08 | 23.41104 | -100.55860 | 35004 ft | 490 kts | 133° |
| 2026-05-05 06:08 | 23.36563 | -100.50285 | 35014 ft | 491 kts | 133° |
| 2026-05-05 06:09 | 23.32023 | -100.44716 | 35002 ft | 492 kts | 133° |
| 2026-05-05 06:09 | 23.27511 | -100.39187 | 35002 ft | 492 kts | 133° |
| 2026-05-05 06:10 | 23.22967 | -100.33625 | 35019 ft | 492 kts | 133° |
| 2026-05-05 06:10 | 23.18419 | -100.28066 | 35010 ft | 491 kts | 133° |
| 2026-05-05 06:11 | 23.13875 | -100.22515 | 35021 ft | 491 kts | 133° |
| 2026-05-05 06:11 | 23.09338 | -100.16981 | 35024 ft | 490 kts | 133° |
| 2026-05-05 06:12 | 23.04796 | -100.11447 | 35014 ft | 491 kts | 133° |
| 2026-05-05 06:12 | 23.00260 | -100.05925 | 35024 ft | 490 kts | 133° |
| 2026-05-05 06:13 | 22.95727 | -100.00415 | 35022 ft | 489 kts | 133° |
| 2026-05-05 06:13 | 22.91195 | -99.94910 | 35012 ft | 489 kts | 133° |
| 2026-05-05 06:14 | 22.86666 | -99.89415 | 35015 ft | 488 kts | 133° |
| 2026-05-05 06:14 | 22.82166 | -99.83962 | 35014 ft | 488 kts | 133° |
| 2026-05-05 06:15 | 22.77637 | -99.78478 | 35010 ft | 488 kts | 133° |
| 2026-05-05 06:15 | 22.73130 | -99.73028 | 35010 ft | 487 kts | 133° |
| 2026-05-05 06:16 | 22.68665 | -99.67634 | 35012 ft | 487 kts | 133° |
| 2026-05-05 06:16 | 22.64135 | -99.62167 | 35002 ft | 488 kts | 133° |
| 2026-05-05 06:17 | 22.59599 | -99.56698 | 34997 ft | 487 kts | 133° |
| 2026-05-05 06:17 | 22.55096 | -99.51274 | 34995 ft | 488 kts | 133° |
| 2026-05-05 06:18 | 22.50563 | -99.45819 | 34996 ft | 487 kts | 133° |
| 2026-05-05 06:18 | 22.46023 | -99.40366 | 34981 ft | 487 kts | 133° |
| 2026-05-05 06:19 | 22.41521 | -99.34962 | 34986 ft | 486 kts | 134° |
| 2026-05-05 06:19 | 22.36995 | -99.29535 | 34977 ft | 486 kts | 133° |
| 2026-05-05 06:20 | 22.32466 | -99.24108 | 34976 ft | 486 kts | 133° |
| 2026-05-05 06:20 | 22.27944 | -99.18695 | 34967 ft | 486 kts | 133° |
| 2026-05-05 06:21 | 22.23414 | -99.13277 | 34958 ft | 486 kts | 133° |
| 2026-05-05 06:21 | 22.18882 | -99.07862 | 34952 ft | 486 kts | 133° |
| 2026-05-05 06:22 | 22.14346 | -99.02450 | 34952 ft | 486 kts | 133° |
| 2026-05-05 06:22 | 22.09832 | -98.97069 | 34940 ft | 487 kts | 133° |
| 2026-05-05 06:23 | 22.05281 | -98.91649 | 34942 ft | 487 kts | 133° |
| 2026-05-05 06:23 | 22.00724 | -98.86227 | 34934 ft | 487 kts | 133° |
| 2026-05-05 06:24 | 21.96170 | -98.80815 | 34930 ft | 487 kts | 133° |
| 2026-05-05 06:24 | 21.91616 | -98.75408 | 34933 ft | 487 kts | 133° |
| 2026-05-05 06:25 | 21.87093 | -98.70044 | 34930 ft | 487 kts | 133° |
| 2026-05-05 06:25 | 21.82532 | -98.64640 | 34929 ft | 487 kts | 133° |
| 2026-05-05 06:26 | 21.77974 | -98.59246 | 34929 ft | 487 kts | 133° |
| 2026-05-05 06:26 | 21.73417 | -98.53857 | 34924 ft | 487 kts | 133° |
| 2026-05-05 06:27 | 21.66584 | -98.45789 | 34923 ft | 486 kts | 133° |
| 2026-05-05 06:28 | 21.62028 | -98.40415 | 34926 ft | 486 kts | 133° |
| 2026-05-05 06:28 | 21.57472 | -98.35047 | 34924 ft | 486 kts | 133° |
| 2026-05-05 06:29 | 21.52938 | -98.29711 | 34925 ft | 485 kts | 133° |
| 2026-05-05 06:29 | 21.48387 | -98.24359 | 34923 ft | 485 kts | 133° |
| 2026-05-05 06:30 | 21.43833 | -98.19010 | 34926 ft | 485 kts | 133° |
| 2026-05-05 06:30 | 21.39282 | -98.13669 | 34923 ft | 485 kts | 133° |
| 2026-05-05 06:31 | 21.34727 | -98.08328 | 34925 ft | 484 kts | 133° |
| 2026-05-05 06:31 | 21.30196 | -98.03023 | 34927 ft | 484 kts | 133° |
| 2026-05-05 06:32 | 21.25641 | -97.97693 | 34930 ft | 484 kts | 133° |
| 2026-05-05 06:32 | 21.21087 | -97.92370 | 34926 ft | 484 kts | 133° |
| 2026-05-05 06:33 | 21.16526 | -97.87044 | 34923 ft | 484 kts | 133° |
| 2026-05-05 06:33 | 21.11969 | -97.81728 | 34924 ft | 484 kts | 133° |
| 2026-05-05 06:34 | 21.07411 | -97.76416 | 34923 ft | 484 kts | 133° |
| 2026-05-05 06:34 | 21.02888 | -97.71150 | 34919 ft | 484 kts | 133° |
| 2026-05-05 06:35 | 20.98326 | -97.65843 | 34919 ft | 484 kts | 133° |
| 2026-05-05 06:35 | 20.93760 | -97.60537 | 34916 ft | 484 kts | 133° |
| 2026-05-05 06:36 | 20.89200 | -97.55244 | 34913 ft | 484 kts | 133° |
| 2026-05-05 06:36 | 20.84634 | -97.49948 | 34913 ft | 484 kts | 133° |
| 2026-05-05 06:37 | 20.80097 | -97.44691 | 34909 ft | 484 kts | 133° |
| 2026-05-05 06:37 | 20.75527 | -97.39401 | 34907 ft | 484 kts | 133° |
| 2026-05-05 06:38 | 20.70953 | -97.34112 | 34907 ft | 484 kts | 133° |
| 2026-05-05 06:38 | 20.66376 | -97.28823 | 34902 ft | 484 kts | 133° |
| 2026-05-05 06:39 | 20.61795 | -97.23535 | 34902 ft | 484 kts | 133° |
| 2026-05-05 06:39 | 20.57242 | -97.18284 | 34896 ft | 484 kts | 133° |
| 2026-05-05 06:40 | 20.53409 | -97.13869 | 34899 ft | 484 kts | 133° |
| 2026-05-05 06:40 | 20.48087 | -97.07742 | 34901 ft | 484 kts | 133° |
| 2026-05-05 06:41 | 20.44249 | -97.03329 | 34894 ft | 484 kts | 133° |
| 2026-05-05 06:41 | 20.39669 | -96.98065 | 34890 ft | 484 kts | 133° |
| 2026-05-05 06:42 | 20.35115 | -96.92837 | 34892 ft | 484 kts | 133° |
| 2026-05-05 06:42 | 20.30528 | -96.87576 | 34894 ft | 484 kts | 133° |
| 2026-05-05 06:43 | 20.25941 | -96.82319 | 34889 ft | 483 kts | 133° |
| 2026-05-05 06:43 | 20.21358 | -96.77071 | 34891 ft | 483 kts | 133° |
| 2026-05-05 06:44 | 20.16918 | -96.71701 | 34891 ft | 483 kts | 128° |
| 2026-05-05 06:44 | 20.12817 | -96.66100 | 34895 ft | 483 kts | 127° |
| 2026-05-05 06:45 | 20.08727 | -96.60424 | 34894 ft | 482 kts | 127° |
| 2026-05-05 06:45 | 20.04611 | -96.54783 | 34900 ft | 482 kts | 127° |
| 2026-05-05 06:46 | 20.00472 | -96.49161 | 34896 ft | 482 kts | 127° |
| 2026-05-05 06:46 | 19.96327 | -96.43551 | 34901 ft | 483 kts | 127° |
| 2026-05-05 06:47 | 19.92181 | -96.37942 | 34896 ft | 483 kts | 127° |
| 2026-05-05 06:47 | 19.88025 | -96.32324 | 34896 ft | 483 kts | 127° |
| 2026-05-05 06:48 | 19.83895 | -96.26744 | 34901 ft | 483 kts | 127° |
| 2026-05-05 06:48 | 19.79736 | -96.21130 | 34902 ft | 484 kts | 127° |
| 2026-05-05 06:49 | 19.75568 | -96.15509 | 34903 ft | 484 kts | 127° |
| 2026-05-05 06:49 | 19.71397 | -96.09891 | 34905 ft | 484 kts | 127° |
| 2026-05-05 06:50 | 19.67221 | -96.04271 | 34908 ft | 484 kts | 127° |
| 2026-05-05 06:50 | 19.63055 | -95.98668 | 34908 ft | 484 kts | 127° |
| 2026-05-05 06:51 | 19.58909 | -95.93099 | 34906 ft | 483 kts | 127° |
| 2026-05-05 06:51 | 19.54739 | -95.87502 | 34910 ft | 483 kts | 127° |
| 2026-05-05 06:52 | 19.50564 | -95.81903 | 34912 ft | 483 kts | 127° |
| 2026-05-05 06:52 | 19.46393 | -95.76316 | 34909 ft | 483 kts | 127° |
| 2026-05-05 06:53 | 19.42219 | -95.70730 | 34911 ft | 483 kts | 127° |
| 2026-05-05 06:53 | 19.38052 | -95.65156 | 34907 ft | 482 kts | 127° |
| 2026-05-05 06:54 | 19.33882 | -95.59587 | 34911 ft | 482 kts | 127° |
| 2026-05-05 06:54 | 19.29711 | -95.54019 | 34913 ft | 482 kts | 127° |
| 2026-05-05 06:55 | 19.25569 | -95.48495 | 34908 ft | 482 kts | 127° |
| 2026-05-05 06:55 | 19.21397 | -95.42936 | 34911 ft | 481 kts | 127° |
| 2026-05-05 06:56 | 19.17229 | -95.37388 | 34914 ft | 481 kts | 127° |
| 2026-05-05 06:56 | 19.13056 | -95.31838 | 34914 ft | 481 kts | 127° |
| 2026-05-05 06:57 | 19.08913 | -95.26333 | 34913 ft | 480 kts | 127° |
| 2026-05-05 06:57 | 19.04749 | -95.20802 | 34913 ft | 480 kts | 127° |
| 2026-05-05 06:58 | 19.00590 | -95.15285 | 34917 ft | 480 kts | 127° |
| 2026-05-05 06:58 | 18.96427 | -95.09772 | 34918 ft | 479 kts | 127° |
| 2026-05-05 06:59 | 18.92268 | -95.04269 | 34920 ft | 479 kts | 127° |
| 2026-05-05 06:59 | 18.88135 | -94.98804 | 34925 ft | 478 kts | 127° |
| 2026-05-05 07:00 | 18.83982 | -94.93317 | 34921 ft | 478 kts | 127° |
| 2026-05-05 07:00 | 18.79835 | -94.87840 | 34924 ft | 478 kts | 128° |
| 2026-05-05 07:01 | 18.75683 | -94.82363 | 34919 ft | 478 kts | 128° |
| 2026-05-05 07:01 | 18.71526 | -94.76884 | 34928 ft | 477 kts | 128° |
| 2026-05-05 07:02 | 18.67373 | -94.71415 | 34935 ft | 478 kts | 128° |
| 2026-05-05 07:02 | 18.63215 | -94.65943 | 34933 ft | 478 kts | 128° |
| 2026-05-05 07:03 | 18.59078 | -94.60506 | 34929 ft | 478 kts | 128° |
| 2026-05-05 07:03 | 18.54915 | -94.55038 | 34927 ft | 478 kts | 128° |
| 2026-05-05 07:04 | 18.50752 | -94.49575 | 34926 ft | 478 kts | 128° |
| 2026-05-05 07:04 | 18.46588 | -94.44114 | 34922 ft | 478 kts | 128° |
| 2026-05-05 07:05 | 18.42420 | -94.38654 | 34927 ft | 478 kts | 128° |
| 2026-05-05 07:05 | 18.38275 | -94.33228 | 34927 ft | 478 kts | 128° |
| 2026-05-05 07:06 | 18.34109 | -94.27780 | 34922 ft | 478 kts | 128° |
| 2026-05-05 07:06 | 18.29947 | -94.22341 | 34922 ft | 478 kts | 128° |
| 2026-05-05 07:07 | 18.25773 | -94.16891 | 34925 ft | 477 kts | 128° |
| 2026-05-05 07:07 | 18.21596 | -94.11442 | 34924 ft | 477 kts | 128° |
| 2026-05-05 07:08 | 18.17426 | -94.06007 | 34922 ft | 477 kts | 128° |
| 2026-05-05 07:08 | 18.13280 | -94.00608 | 34926 ft | 477 kts | 128° |
| 2026-05-05 07:09 | 18.09107 | -93.95178 | 34926 ft | 477 kts | 128° |
| 2026-05-05 07:09 | 18.04932 | -93.89750 | 34921 ft | 477 kts | 128° |
| 2026-05-05 07:10 | 18.00750 | -93.84318 | 34929 ft | 477 kts | 128° |
| 2026-05-05 07:10 | 17.96572 | -93.78896 | 34924 ft | 478 kts | 128° |
| 2026-05-05 07:11 | 17.92414 | -93.73503 | 34924 ft | 478 kts | 128° |
| 2026-05-05 07:11 | 17.88229 | -93.68080 | 34924 ft | 478 kts | 128° |
| 2026-05-05 07:12 | 17.84033 | -93.62647 | 34924 ft | 479 kts | 128° |
| 2026-05-05 07:12 | 17.79830 | -93.57210 | 34922 ft | 480 kts | 129° |
| 2026-05-05 07:13 | 17.75618 | -93.51766 | 34925 ft | 481 kts | 129° |
| 2026-05-05 07:13 | 17.71396 | -93.46313 | 34927 ft | 482 kts | 129° |
| 2026-05-05 07:14 | 17.67169 | -93.40858 | 34922 ft | 482 kts | 129° |
| 2026-05-05 07:14 | 17.62928 | -93.35390 | 34924 ft | 483 kts | 129° |
| 2026-05-05 07:15 | 17.58678 | -93.29916 | 34931 ft | 484 kts | 129° |
| 2026-05-05 07:15 | 17.54449 | -93.24472 | 34931 ft | 485 kts | 129° |
| 2026-05-05 07:16 | 17.50183 | -93.18984 | 34938 ft | 486 kts | 129° |
| 2026-05-05 07:16 | 17.45909 | -93.13491 | 34943 ft | 486 kts | 129° |
| 2026-05-05 07:17 | 17.41639 | -93.08009 | 34957 ft | 486 kts | 129° |
| 2026-05-05 07:17 | 17.37357 | -93.02515 | 34963 ft | 487 kts | 129° |
| 2026-05-05 07:18 | 17.33064 | -92.97011 | 34965 ft | 487 kts | 129° |
| 2026-05-05 07:18 | 17.28780 | -92.91524 | 34981 ft | 487 kts | 129° |
| 2026-05-05 07:19 | 17.24517 | -92.86069 | 34994 ft | 488 kts | 129° |
| 2026-05-05 07:19 | 17.20241 | -92.80600 | 34991 ft | 488 kts | 129° |
| 2026-05-05 07:20 | 17.15937 | -92.75100 | 35002 ft | 488 kts | 129° |
| 2026-05-05 07:20 | 17.11635 | -92.69608 | 35012 ft | 487 kts | 129° |
| 2026-05-05 07:21 | 17.07337 | -92.64124 | 35033 ft | 487 kts | 129° |
| 2026-05-05 07:21 | 17.03045 | -92.58653 | 35037 ft | 486 kts | 129° |
| 2026-05-05 07:22 | 16.98753 | -92.53185 | 35039 ft | 487 kts | 129° |
| 2026-05-05 07:22 | 16.94459 | -92.47720 | 35044 ft | 487 kts | 129° |
| 2026-05-05 07:23 | 16.90163 | -92.42257 | 35060 ft | 486 kts | 129° |
| 2026-05-05 07:23 | 16.85891 | -92.36829 | 35063 ft | 487 kts | 129° |
| 2026-05-05 07:24 | 16.81589 | -92.31367 | 35070 ft | 487 kts | 129° |
| 2026-05-05 07:24 | 16.77283 | -92.25904 | 35073 ft | 487 kts | 129° |
| 2026-05-05 07:25 | 16.72972 | -92.20440 | 35077 ft | 487 kts | 129° |
| 2026-05-05 07:25 | 16.68666 | -92.14984 | 35087 ft | 487 kts | 129° |
| 2026-05-05 07:26 | 16.64353 | -92.09526 | 35082 ft | 487 kts | 129° |
| 2026-05-05 07:26 | 16.60075 | -92.04115 | 35093 ft | 487 kts | 129° |
| 2026-05-05 07:27 | 16.55758 | -91.98659 | 35087 ft | 487 kts | 129° |
| 2026-05-05 07:27 | 16.51443 | -91.93210 | 35088 ft | 487 kts | 129° |
| 2026-05-05 07:28 | 16.47126 | -91.87763 | 35088 ft | 487 kts | 129° |
| 2026-05-05 07:28 | 16.42843 | -91.82364 | 35085 ft | 486 kts | 129° |
| 2026-05-05 07:29 | 16.38532 | -91.76931 | 35096 ft | 486 kts | 129° |
| 2026-05-05 07:29 | 16.34951 | -91.72423 | 35078 ft | 486 kts | 129° |
| 2026-05-05 07:30 | 16.30638 | -91.66996 | 35080 ft | 486 kts | 129° |
| 2026-05-05 07:30 | 16.24159 | -91.58853 | 35071 ft | 487 kts | 129° |
| 2026-05-05 07:31 | 16.19840 | -91.53429 | 35071 ft | 487 kts | 129° |
| 2026-05-05 07:31 | 16.15544 | -91.48037 | 35071 ft | 487 kts | 129° |
| 2026-05-05 07:32 | 16.11217 | -91.42610 | 35062 ft | 487 kts | 129° |
| 2026-05-05 07:32 | 16.06973 | -91.37106 | 35056 ft | 487 kts | 123° |
| 2026-05-05 07:33 | 16.03423 | -91.31109 | 35067 ft | 487 kts | 120° |
| 2026-05-05 07:33 | 15.99971 | -91.25049 | 35058 ft | 487 kts | 120° |
| 2026-05-05 07:34 | 15.96503 | -91.19020 | 35057 ft | 487 kts | 121° |
| 2026-05-05 07:34 | 15.92994 | -91.12990 | 35056 ft | 486 kts | 121° |
| 2026-05-05 07:35 | 15.89502 | -91.07020 | 35054 ft | 487 kts | 121° |
| 2026-05-05 07:35 | 15.85983 | -91.01010 | 35055 ft | 487 kts | 121° |
| 2026-05-05 07:36 | 15.82460 | -90.94995 | 35062 ft | 487 kts | 121° |
| 2026-05-05 07:36 | 15.78944 | -90.88996 | 35064 ft | 487 kts | 121° |
| 2026-05-05 07:37 | 15.75421 | -90.82988 | 35069 ft | 487 kts | 121° |
| 2026-05-05 07:37 | 15.71919 | -90.77022 | 35079 ft | 486 kts | 121° |
| 2026-05-05 07:38 | 15.68392 | -90.71018 | 35089 ft | 487 kts | 121° |
| 2026-05-05 07:38 | 15.64867 | -90.65021 | 35094 ft | 487 kts | 121° |
| 2026-05-05 07:39 | 15.61340 | -90.59028 | 35113 ft | 487 kts | 121° |
| 2026-05-05 07:39 | 15.57813 | -90.53038 | 35120 ft | 487 kts | 121° |
| 2026-05-05 07:40 | 15.54299 | -90.47075 | 35135 ft | 487 kts | 121° |
| 2026-05-05 07:40 | 15.50769 | -90.41089 | 35148 ft | 487 kts | 121° |
| 2026-05-05 07:41 | 15.47234 | -90.35101 | 35148 ft | 486 kts | 121° |
| 2026-05-05 07:41 | 15.43703 | -90.29123 | 35161 ft | 486 kts | 121° |
| 2026-05-05 07:42 | 15.40171 | -90.23148 | 35160 ft | 486 kts | 121° |
| 2026-05-05 07:42 | 15.36634 | -90.17171 | 35162 ft | 486 kts | 121° |
| 2026-05-05 07:43 | 15.33095 | -90.11194 | 35155 ft | 487 kts | 121° |
| 2026-05-05 07:43 | 15.29553 | -90.05217 | 35141 ft | 487 kts | 121° |
| 2026-05-05 07:44 | 15.26030 | -89.99277 | 35142 ft | 486 kts | 121° |
| 2026-05-05 07:44 | 15.22489 | -89.93311 | 35138 ft | 486 kts | 121° |
| 2026-05-05 07:45 | 15.18946 | -89.87347 | 35120 ft | 486 kts | 121° |
| 2026-05-05 07:45 | 15.15402 | -89.81384 | 35112 ft | 486 kts | 121° |
| 2026-05-05 07:46 | 15.11853 | -89.75419 | 35100 ft | 486 kts | 121° |
| 2026-05-05 07:46 | 15.08304 | -89.69458 | 35089 ft | 486 kts | 121° |
| 2026-05-05 07:47 | 15.04755 | -89.63501 | 35070 ft | 486 kts | 121° |
| 2026-05-05 07:47 | 15.01209 | -89.57556 | 35075 ft | 485 kts | 121° |
| 2026-05-05 07:48 | 14.97683 | -89.51647 | 35068 ft | 485 kts | 121° |
| 2026-05-05 07:48 | 14.94133 | -89.45703 | 35062 ft | 486 kts | 121° |
| 2026-05-05 07:49 | 14.90580 | -89.39757 | 35051 ft | 486 kts | 121° |
| 2026-05-05 07:49 | 14.87026 | -89.33816 | 35051 ft | 486 kts | 121° |
| 2026-05-05 07:50 | 14.83472 | -89.27878 | 35045 ft | 486 kts | 121° |
| 2026-05-05 07:50 | 14.79913 | -89.21936 | 35043 ft | 486 kts | 121° |
| 2026-05-05 07:51 | 14.76376 | -89.16037 | 35042 ft | 486 kts | 121° |
| 2026-05-05 07:51 | 14.72815 | -89.10101 | 35036 ft | 485 kts | 121° |
| 2026-05-05 07:52 | 14.69255 | -89.04172 | 35040 ft | 486 kts | 121° |
| 2026-05-05 07:52 | 14.65692 | -88.98242 | 35029 ft | 486 kts | 121° |
| 2026-05-05 07:53 | 14.62123 | -88.92306 | 35021 ft | 486 kts | 121° |
| 2026-05-05 07:53 | 14.58557 | -88.86380 | 35021 ft | 486 kts | 121° |
| 2026-05-05 07:54 | 14.54978 | -88.80436 | 35020 ft | 487 kts | 121° |
| 2026-05-05 07:54 | 14.51401 | -88.74500 | 35013 ft | 487 kts | 121° |
| 2026-05-05 07:55 | 14.47819 | -88.68561 | 35013 ft | 487 kts | 121° |
| 2026-05-05 07:55 | 14.44265 | -88.62673 | 35019 ft | 486 kts | 121° |
| 2026-05-05 07:56 | 14.40686 | -88.56746 | 35035 ft | 486 kts | 121° |
| 2026-05-05 07:56 | 14.37109 | -88.50827 | 35025 ft | 486 kts | 121° |
| 2026-05-05 07:57 | 14.33529 | -88.44908 | 35036 ft | 485 kts | 121° |
| 2026-05-05 07:57 | 14.29957 | -88.39008 | 35044 ft | 484 kts | 121° |
| 2026-05-05 07:58 | 14.26412 | -88.33154 | 35045 ft | 484 kts | 121° |
| 2026-05-05 07:58 | 14.22836 | -88.27255 | 35052 ft | 484 kts | 122° |
| 2026-05-05 07:59 | 14.19266 | -88.21369 | 35055 ft | 484 kts | 122° |
| 2026-05-05 07:59 | 14.15696 | -88.15489 | 35061 ft | 483 kts | 122° |
| 2026-05-05 08:00 | 14.12127 | -88.09613 | 35066 ft | 484 kts | 122° |
| 2026-05-05 08:00 | 14.08578 | -88.03775 | 35057 ft | 484 kts | 122° |
| 2026-05-05 08:01 | 14.05002 | -87.97897 | 35057 ft | 484 kts | 122° |
| 2026-05-05 08:01 | 14.01423 | -87.92018 | 35053 ft | 484 kts | 122° |
| 2026-05-05 08:02 | 13.97844 | -87.86143 | 35045 ft | 485 kts | 122° |
| 2026-05-05 08:02 | 13.94282 | -87.80299 | 35041 ft | 485 kts | 122° |
| 2026-05-05 08:03 | 13.90698 | -87.74424 | 35033 ft | 484 kts | 122° |
| 2026-05-05 08:03 | 13.87110 | -87.68548 | 35038 ft | 484 kts | 122° |
| 2026-05-05 08:04 | 13.83691 | -87.62950 | 35045 ft | 484 kts | 122° |
| 2026-05-05 08:04 | 13.80106 | -87.57085 | 35032 ft | 484 kts | 122° |
| 2026-05-05 08:05 | 13.76546 | -87.51267 | 35047 ft | 483 kts | 122° |
| 2026-05-05 08:05 | 13.72966 | -87.45418 | 35049 ft | 483 kts | 122° |
| 2026-05-05 08:06 | 13.69382 | -87.39567 | 35056 ft | 482 kts | 122° |
| 2026-05-05 08:06 | 13.65807 | -87.33735 | 35053 ft | 482 kts | 122° |
| 2026-05-05 08:07 | 13.62229 | -87.27903 | 35049 ft | 482 kts | 122° |
| 2026-05-05 08:07 | 13.58653 | -87.22077 | 35052 ft | 481 kts | 122° |
| 2026-05-05 08:08 | 13.55099 | -87.16291 | 35046 ft | 481 kts | 122° |
| 2026-05-05 08:08 | 13.51521 | -87.10470 | 35050 ft | 481 kts | 122° |
| 2026-05-05 08:09 | 13.47951 | -87.04667 | 35049 ft | 480 kts | 122° |
| 2026-05-05 08:09 | 13.44376 | -86.98857 | 35051 ft | 481 kts | 122° |
| 2026-05-05 08:10 | 13.40796 | -86.93045 | 35049 ft | 481 kts | 122° |
| 2026-05-05 08:10 | 13.37238 | -86.87272 | 35040 ft | 481 kts | 122° |
| 2026-05-05 08:11 | 13.33655 | -86.81463 | 35049 ft | 481 kts | 122° |
| 2026-05-05 08:11 | 13.30068 | -86.75651 | 35033 ft | 481 kts | 122° |
| 2026-05-05 08:12 | 13.26506 | -86.69882 | 35045 ft | 481 kts | 122° |
| 2026-05-05 08:12 | 13.22922 | -86.64082 | 35038 ft | 481 kts | 122° |
| 2026-05-05 08:13 | 13.19334 | -86.58279 | 35033 ft | 482 kts | 122° |
| 2026-05-05 08:13 | 13.15737 | -86.52466 | 35039 ft | 482 kts | 122° |
| 2026-05-05 08:14 | 13.12140 | -86.46657 | 35034 ft | 483 kts | 122° |
| 2026-05-05 08:14 | 13.08535 | -86.40838 | 35032 ft | 483 kts | 122° |
| 2026-05-05 08:15 | 13.04926 | -86.35017 | 35026 ft | 483 kts | 122° |
| 2026-05-05 08:15 | 13.01337 | -86.29233 | 35025 ft | 483 kts | 122° |
| 2026-05-05 08:16 | 12.97729 | -86.23420 | 35019 ft | 483 kts | 122° |
| 2026-05-05 08:16 | 12.94116 | -86.17604 | 35006 ft | 483 kts | 122° |
| 2026-05-05 08:17 | 12.90507 | -86.11799 | 35010 ft | 482 kts | 122° |
| 2026-05-05 08:17 | 12.86899 | -86.05997 | 35003 ft | 482 kts | 122° |
| 2026-05-05 08:18 | 12.83298 | -86.00212 | 34998 ft | 481 kts | 122° |
| 2026-05-05 08:18 | 12.79719 | -85.94466 | 34989 ft | 481 kts | 122° |
| 2026-05-05 08:19 | 12.76114 | -85.88680 | 34980 ft | 481 kts | 122° |
| 2026-05-05 08:19 | 12.72515 | -85.82908 | 34979 ft | 480 kts | 122° |
| 2026-05-05 08:20 | 12.68913 | -85.77136 | 34980 ft | 480 kts | 122° |
| 2026-05-05 08:20 | 12.65921 | -85.72343 | 34975 ft | 481 kts | 123° |
| 2026-05-05 08:21 | 12.62312 | -85.66567 | 34967 ft | 481 kts | 123° |
| 2026-05-05 08:21 | 12.58118 | -85.59857 | 34965 ft | 481 kts | 123° |
| 2026-05-05 08:22 | 12.55097 | -85.55027 | 34962 ft | 481 kts | 123° |
| 2026-05-05 08:22 | 12.51507 | -85.49292 | 34961 ft | 481 kts | 123° |
| 2026-05-05 08:23 | 12.47874 | -85.43490 | 34956 ft | 481 kts | 123° |
| 2026-05-05 08:23 | 12.44284 | -85.37762 | 34958 ft | 481 kts | 123° |
| 2026-05-05 08:24 | 12.40671 | -85.32000 | 34951 ft | 480 kts | 123° |
| 2026-05-05 08:24 | 12.37064 | -85.26249 | 34953 ft | 479 kts | 123° |
| 2026-05-05 08:25 | 12.33463 | -85.20513 | 34952 ft | 478 kts | 123° |
| 2026-05-05 08:25 | 12.29864 | -85.14785 | 34955 ft | 478 kts | 123° |
| 2026-05-05 08:26 | 12.26299 | -85.09112 | 34953 ft | 477 kts | 123° |
| 2026-05-05 08:26 | 12.22712 | -85.03409 | 34949 ft | 476 kts | 123° |
| 2026-05-05 08:27 | 12.19127 | -84.97712 | 34947 ft | 476 kts | 123° |
| 2026-05-05 08:27 | 12.15543 | -84.92020 | 34943 ft | 476 kts | 123° |
| 2026-05-05 08:28 | 12.11963 | -84.86338 | 34946 ft | 476 kts | 123° |
| 2026-05-05 08:28 | 12.08377 | -84.80650 | 34939 ft | 476 kts | 123° |
| 2026-05-05 08:29 | 12.04790 | -84.74964 | 34943 ft | 476 kts | 123° |
| 2026-05-05 08:30 | 11.99425 | -84.66464 | 34938 ft | 476 kts | 123° |
| 2026-05-05 08:30 | 11.95831 | -84.60775 | 34935 ft | 476 kts | 123° |
| 2026-05-05 08:31 | 11.92231 | -84.55079 | 34933 ft | 476 kts | 123° |
| 2026-05-05 08:31 | 11.88635 | -84.49393 | 34935 ft | 476 kts | 123° |
| 2026-05-05 08:32 | 11.85036 | -84.43706 | 34934 ft | 476 kts | 123° |
| 2026-05-05 08:32 | 11.81471 | -84.38076 | 34932 ft | 475 kts | 123° |
| 2026-05-05 08:33 | 11.77878 | -84.32404 | 34927 ft | 475 kts | 123° |
| 2026-05-05 08:33 | 11.74291 | -84.26746 | 34928 ft | 475 kts | 123° |
| 2026-05-05 08:34 | 11.70704 | -84.21091 | 34928 ft | 474 kts | 123° |
| 2026-05-05 08:34 | 11.67116 | -84.15437 | 34925 ft | 474 kts | 123° |
| 2026-05-05 08:35 | 11.63536 | -84.09799 | 34924 ft | 473 kts | 123° |
| 2026-05-05 08:35 | 11.59980 | -84.04202 | 34921 ft | 473 kts | 123° |
| 2026-05-05 08:36 | 11.56394 | -83.98560 | 34917 ft | 473 kts | 123° |
| 2026-05-05 08:36 | 11.52816 | -83.92936 | 34915 ft | 472 kts | 123° |
| 2026-05-05 08:37 | 11.49241 | -83.87318 | 34913 ft | 472 kts | 123° |
| 2026-05-05 08:37 | 11.45662 | -83.81697 | 34917 ft | 472 kts | 123° |
| 2026-05-05 08:38 | 11.42082 | -83.76079 | 34913 ft | 472 kts | 123° |
| 2026-05-05 08:38 | 11.38528 | -83.70503 | 34909 ft | 472 kts | 123° |
| 2026-05-05 08:39 | 11.34943 | -83.64882 | 34907 ft | 473 kts | 123° |
| 2026-05-05 08:39 | 11.31355 | -83.59259 | 34911 ft | 473 kts | 124° |
| 2026-05-05 08:40 | 11.27766 | -83.53638 | 34911 ft | 473 kts | 124° |
| 2026-05-05 08:40 | 11.24186 | -83.48033 | 34907 ft | 474 kts | 124° |
| 2026-05-05 08:41 | 11.20592 | -83.42409 | 34910 ft | 474 kts | 124° |
| 2026-05-05 08:41 | 11.16992 | -83.36778 | 34908 ft | 474 kts | 124° |
| 2026-05-05 08:42 | 11.13405 | -83.31147 | 34907 ft | 474 kts | 123° |
| 2026-05-05 08:42 | 11.09835 | -83.25482 | 34906 ft | 474 kts | 123° |
| 2026-05-05 08:43 | 11.06299 | -83.19867 | 34907 ft | 474 kts | 123° |
| 2026-05-05 08:43 | 11.02714 | -83.14184 | 34907 ft | 474 kts | 123° |
| 2026-05-05 08:44 | 10.99179 | -83.08587 | 34905 ft | 473 kts | 123° |
| 2026-05-05 08:44 | 10.95619 | -83.02954 | 34904 ft | 473 kts | 123° |
| 2026-05-05 08:45 | 10.92065 | -82.97335 | 34907 ft | 472 kts | 123° |
| 2026-05-05 08:45 | 10.88506 | -82.91709 | 34906 ft | 472 kts | 123° |
| 2026-05-05 08:46 | 10.84954 | -82.86097 | 34904 ft | 472 kts | 123° |
| 2026-05-05 08:46 | 10.81396 | -82.80478 | 34904 ft | 472 kts | 123° |
| 2026-05-05 08:47 | 10.77841 | -82.74866 | 34907 ft | 472 kts | 123° |
| 2026-05-05 08:47 | 10.74306 | -82.69289 | 34904 ft | 472 kts | 123° |
| 2026-05-05 08:48 | 10.70742 | -82.63669 | 34904 ft | 472 kts | 123° |
| 2026-05-05 08:48 | 10.67225 | -82.58027 | 34904 ft | 472 kts | 122° |
| 2026-05-05 08:49 | 10.63742 | -82.52367 | 34905 ft | 472 kts | 122° |
| 2026-05-05 08:49 | 10.60281 | -82.46748 | 34905 ft | 472 kts | 122° |
| 2026-05-05 08:50 | 10.56790 | -82.41097 | 34904 ft | 472 kts | 123° |
| 2026-05-05 08:50 | 10.53289 | -82.35437 | 34906 ft | 472 kts | 122° |
| 2026-05-05 08:51 | 10.49787 | -82.29782 | 34900 ft | 472 kts | 123° |
| 2026-05-05 08:51 | 10.46295 | -82.24144 | 34902 ft | 472 kts | 123° |
| 2026-05-05 08:52 | 10.42797 | -82.18499 | 34902 ft | 471 kts | 122° |
| 2026-05-05 08:52 | 10.39329 | -82.12905 | 34901 ft | 471 kts | 122° |
| 2026-05-05 08:53 | 10.35832 | -82.07267 | 34905 ft | 471 kts | 122° |
| 2026-05-05 08:53 | 10.32337 | -82.01636 | 34901 ft | 471 kts | 122° |
| 2026-05-05 08:54 | 10.28842 | -81.96005 | 34904 ft | 471 kts | 122° |
| 2026-05-05 08:54 | 10.25345 | -81.90376 | 34902 ft | 471 kts | 122° |
| 2026-05-05 08:55 | 10.21844 | -81.84743 | 34900 ft | 471 kts | 122° |
| 2026-05-05 08:55 | 10.18346 | -81.79118 | 34900 ft | 471 kts | 122° |
| 2026-05-05 08:56 | 10.14869 | -81.73528 | 34900 ft | 471 kts | 122° |
| 2026-05-05 08:56 | 10.11367 | -81.67902 | 34896 ft | 471 kts | 122° |
| 2026-05-05 08:57 | 10.07861 | -81.62272 | 34899 ft | 471 kts | 122° |
| 2026-05-05 08:57 | 10.04359 | -81.56651 | 34900 ft | 472 kts | 122° |
| 2026-05-05 08:58 | 10.00846 | -81.51015 | 34898 ft | 472 kts | 122° |
| 2026-05-05 08:58 | 9.97356 | -81.45419 | 34900 ft | 472 kts | 122° |
| 2026-05-05 08:59 | 9.93847 | -81.39794 | 34900 ft | 472 kts | 122° |
| 2026-05-05 08:59 | 9.90333 | -81.34165 | 34901 ft | 472 kts | 122° |
| 2026-05-05 09:00 | 9.86823 | -81.28545 | 34897 ft | 471 kts | 122° |
| 2026-05-05 09:00 | 9.83312 | -81.22925 | 34899 ft | 471 kts | 122° |
| 2026-05-05 09:01 | 9.79804 | -81.17314 | 34894 ft | 470 kts | 122° |
| 2026-05-05 09:01 | 9.76305 | -81.11720 | 34898 ft | 469 kts | 122° |
| 2026-05-05 09:02 | 9.72809 | -81.06131 | 34904 ft | 469 kts | 122° |
| 2026-05-05 09:02 | 9.69331 | -81.00575 | 34897 ft | 468 kts | 122° |
| 2026-05-05 09:03 | 9.65841 | -80.95002 | 34900 ft | 468 kts | 122° |
| 2026-05-05 09:03 | 9.62358 | -80.89441 | 34897 ft | 467 kts | 122° |
| 2026-05-05 09:04 | 9.58875 | -80.83885 | 34895 ft | 466 kts | 122° |
| 2026-05-05 09:04 | 9.55398 | -80.78333 | 34896 ft | 466 kts | 122° |
| 2026-05-05 09:05 | 9.51926 | -80.72789 | 34894 ft | 466 kts | 122° |
| 2026-05-05 09:05 | 9.48475 | -80.67278 | 34893 ft | 466 kts | 122° |
| 2026-05-05 09:06 | 9.45000 | -80.61725 | 34894 ft | 466 kts | 122° |
| 2026-05-05 09:06 | 9.41532 | -80.56182 | 34895 ft | 466 kts | 122° |
| 2026-05-05 09:07 | 9.38063 | -80.50631 | 34895 ft | 467 kts | 122° |
| 2026-05-05 09:07 | 9.34588 | -80.45073 | 34893 ft | 467 kts | 122° |
| 2026-05-05 09:08 | 9.31129 | -80.39533 | 34895 ft | 468 kts | 122° |
| 2026-05-05 09:08 | 9.27647 | -80.33957 | 34893 ft | 468 kts | 122° |
| 2026-05-05 09:09 | 9.24165 | -80.28383 | 34894 ft | 469 kts | 122° |
| 2026-05-05 09:09 | 9.20684 | -80.22804 | 34890 ft | 469 kts | 122° |
| 2026-05-05 09:10 | 9.17202 | -80.17212 | 34890 ft | 469 kts | 122° |
| 2026-05-05 09:10 | 9.13749 | -80.11659 | 34890 ft | 469 kts | 122° |
| 2026-05-05 09:11 | 9.10286 | -80.06078 | 34895 ft | 469 kts | 122° |
| 2026-05-05 09:11 | 9.06821 | -80.00477 | 34894 ft | 468 kts | 122° |
| 2026-05-05 09:12 | 9.03947 | -79.95828 | 34890 ft | 468 kts | 122° |
| 2026-05-05 09:12 | 9.00500 | -79.90245 | 34887 ft | 468 kts | 122° |
| 2026-05-05 09:13 | 8.97049 | -79.84662 | 34877 ft | 468 kts | 122° |
| 2026-05-05 09:13 | 8.93598 | -79.79087 | 34868 ft | 467 kts | 122° |
| 2026-05-05 09:14 | 8.90149 | -79.73522 | 34861 ft | 467 kts | 122° |
| 2026-05-05 09:14 | 8.86719 | -79.67997 | 34856 ft | 467 kts | 122° |
| 2026-05-05 09:15 | 8.83268 | -79.62442 | 34857 ft | 467 kts | 122° |
| 2026-05-05 09:15 | 8.79803 | -79.56877 | 34859 ft | 466 kts | 122° |
| 2026-05-05 09:16 | 8.76346 | -79.51333 | 34863 ft | 466 kts | 122° |
| 2026-05-05 09:16 | 8.72880 | -79.45782 | 34867 ft | 466 kts | 122° |
| 2026-05-05 09:17 | 8.69420 | -79.40235 | 34872 ft | 466 kts | 122° |
| 2026-05-05 09:17 | 8.65980 | -79.34716 | 34876 ft | 466 kts | 122° |
| 2026-05-05 09:18 | 8.62523 | -79.29165 | 34875 ft | 466 kts | 122° |
| 2026-05-05 09:18 | 8.59066 | -79.23616 | 34878 ft | 467 kts | 122° |
| 2026-05-05 09:19 | 8.55609 | -79.18064 | 34879 ft | 467 kts | 122° |
| 2026-05-05 09:19 | 8.52152 | -79.12507 | 34882 ft | 467 kts | 122° |
| 2026-05-05 09:20 | 8.48687 | -79.06944 | 34880 ft | 467 kts | 122° |
| 2026-05-05 09:20 | 8.45239 | -79.01418 | 34880 ft | 467 kts | 122° |
| 2026-05-05 09:21 | 8.41764 | -78.95860 | 34883 ft | 468 kts | 122° |
| 2026-05-05 09:21 | 8.38290 | -78.90304 | 34886 ft | 468 kts | 122° |
| 2026-05-05 09:22 | 8.34813 | -78.84749 | 34883 ft | 468 kts | 122° |
| 2026-05-05 09:22 | 8.31349 | -78.79225 | 34885 ft | 468 kts | 122° |
| 2026-05-05 09:23 | 8.27869 | -78.73674 | 34883 ft | 468 kts | 122° |
| 2026-05-05 09:23 | 8.24391 | -78.68127 | 34886 ft | 467 kts | 122° |
| 2026-05-05 09:24 | 8.20933 | -78.62614 | 34885 ft | 467 kts | 122° |
| 2026-05-05 09:24 | 8.17458 | -78.57078 | 34886 ft | 467 kts | 122° |
| 2026-05-05 09:25 | 8.13981 | -78.51542 | 34890 ft | 467 kts | 122° |
| 2026-05-05 09:25 | 8.10503 | -78.46006 | 34889 ft | 467 kts | 122° |
| 2026-05-05 09:26 | 8.07025 | -78.40477 | 34894 ft | 467 kts | 122° |
| 2026-05-05 09:26 | 8.03543 | -78.34947 | 34893 ft | 467 kts | 122° |
| 2026-05-05 09:27 | 8.00052 | -78.29408 | 34894 ft | 467 kts | 122° |
| 2026-05-05 09:27 | 7.96561 | -78.23872 | 34897 ft | 468 kts | 122° |
| 2026-05-05 09:28 | 7.93066 | -78.18333 | 34898 ft | 468 kts | 122° |
| 2026-05-05 09:28 | 7.89561 | -78.12790 | 34904 ft | 469 kts | 122° |
| 2026-05-05 09:29 | 7.86046 | -78.07240 | 34908 ft | 470 kts | 122° |
| 2026-05-05 09:29 | 7.82523 | -78.01685 | 34911 ft | 470 kts | 122° |
| 2026-05-05 09:30 | 7.79015 | -77.96156 | 34912 ft | 471 kts | 122° |
| 2026-05-05 09:30 | 7.75480 | -77.90589 | 34915 ft | 471 kts | 122° |
| 2026-05-05 09:31 | 7.71949 | -77.85033 | 34919 ft | 471 kts | 122° |
| 2026-05-05 09:31 | 7.68416 | -77.79471 | 34920 ft | 470 kts | 122° |
| 2026-05-05 09:32 | 7.64893 | -77.73922 | 34919 ft | 470 kts | 122° |
| 2026-05-05 09:32 | 7.61388 | -77.68404 | 34915 ft | 470 kts | 122° |
| 2026-05-05 09:33 | 7.57869 | -77.62866 | 34914 ft | 469 kts | 122° |
| 2026-05-05 09:33 | 7.54348 | -77.57328 | 34916 ft | 469 kts | 122° |
| 2026-05-05 09:34 | 7.50823 | -77.51794 | 34909 ft | 468 kts | 122° |
| 2026-05-05 09:34 | 7.47300 | -77.46271 | 34908 ft | 468 kts | 122° |
| 2026-05-05 09:35 | 7.43773 | -77.40748 | 34899 ft | 468 kts | 122° |
| 2026-05-05 09:35 | 7.38489 | -77.32475 | 34900 ft | 468 kts | 122° |
| 2026-05-05 09:36 | 7.34971 | -77.26959 | 34897 ft | 468 kts | 122° |
| 2026-05-05 09:36 | 7.31451 | -77.21432 | 34895 ft | 468 kts | 122° |
| 2026-05-05 09:37 | 7.27963 | -77.15956 | 34893 ft | 468 kts | 122° |
| 2026-05-05 09:37 | 7.24441 | -77.10421 | 34894 ft | 468 kts | 122° |
| 2026-05-05 09:38 | 7.20930 | -77.04908 | 34893 ft | 468 kts | 122° |
| 2026-05-05 09:38 | 7.17409 | -76.99378 | 34894 ft | 468 kts | 122° |
| 2026-05-05 09:39 | 7.13888 | -76.93841 | 34892 ft | 468 kts | 122° |
| 2026-05-05 09:39 | 7.10375 | -76.88309 | 34896 ft | 468 kts | 122° |
| 2026-05-05 09:40 | 7.06888 | -76.82813 | 34898 ft | 468 kts | 122° |
| 2026-05-05 09:40 | 7.03382 | -76.77289 | 34906 ft | 468 kts | 122° |
| 2026-05-05 09:41 | 6.99872 | -76.71759 | 34909 ft | 468 kts | 122° |
| 2026-05-05 09:41 | 6.96370 | -76.66238 | 34918 ft | 468 kts | 122° |
| 2026-05-05 09:42 | 6.92869 | -76.60718 | 34929 ft | 468 kts | 122° |
| 2026-05-05 09:42 | 6.89371 | -76.55194 | 34936 ft | 468 kts | 122° |
| 2026-05-05 09:43 | 6.85878 | -76.49676 | 34946 ft | 467 kts | 122° |
| 2026-05-05 09:43 | 6.82408 | -76.44192 | 34959 ft | 467 kts | 122° |
| 2026-05-05 09:44 | 6.78911 | -76.38664 | 34966 ft | 467 kts | 122° |
| 2026-05-05 09:44 | 6.75420 | -76.33138 | 34980 ft | 467 kts | 122° |
| 2026-05-05 09:45 | 6.71956 | -76.27656 | 34993 ft | 467 kts | 122° |
| 2026-05-05 09:45 | 6.68474 | -76.22148 | 34998 ft | 467 kts | 122° |
| 2026-05-05 09:46 | 6.64985 | -76.16636 | 35004 ft | 466 kts | 122° |
| 2026-05-05 09:46 | 6.61499 | -76.11131 | 35007 ft | 466 kts | 122° |
| 2026-05-05 09:47 | 6.58013 | -76.05629 | 35006 ft | 466 kts | 122° |
| 2026-05-05 09:47 | 6.54532 | -76.00129 | 35006 ft | 466 kts | 122° |
| 2026-05-05 09:48 | 6.51045 | -75.94624 | 35006 ft | 466 kts | 122° |
| 2026-05-05 09:48 | 6.47580 | -75.89159 | 35006 ft | 466 kts | 122° |
| 2026-05-05 09:49 | 6.44093 | -75.83666 | 35019 ft | 466 kts | 122° |
| 2026-05-05 09:49 | 6.40604 | -75.78179 | 35063 ft | 465 kts | 122° |
| 2026-05-05 09:50 | 6.37112 | -75.72704 | 35090 ft | 465 kts | 122° |
| 2026-05-05 09:50 | 6.33617 | -75.67232 | 35126 ft | 464 kts | 122° |
| 2026-05-05 09:51 | 6.30124 | -75.61772 | 35161 ft | 464 kts | 122° |
| 2026-05-05 09:51 | 6.26635 | -75.56321 | 35157 ft | 464 kts | 122° |
| 2026-05-05 09:52 | 6.23166 | -75.50901 | 35161 ft | 463 kts | 122° |
| 2026-05-05 09:52 | 6.21420 | -75.48176 | 35290 ft | 463 kts | 122° |
| 2026-05-05 09:52 | 6.19675 | -75.45451 | 35298 ft | 463 kts | 122° |
| 2026-05-05 09:53 | 6.16185 | -75.40004 | 35295 ft | 463 kts | 122° |
| 2026-05-05 09:53 | 6.12695 | -75.34564 | 35294 ft | 463 kts | 122° |
| 2026-05-05 09:54 | 6.09204 | -75.29130 | 35236 ft | 462 kts | 122° |
| 2026-05-05 09:54 | 6.05715 | -75.23701 | 35167 ft | 462 kts | 122° |
| 2026-05-05 09:55 | 6.02222 | -75.18271 | 35096 ft | 462 kts | 122° |
| 2026-05-05 09:55 | 5.98727 | -75.12841 | 35016 ft | 462 kts | 122° |
| 2026-05-05 09:56 | 5.95253 | -75.07444 | 34994 ft | 462 kts | 122° |
| 2026-05-05 09:56 | 5.91758 | -75.02014 | 34977 ft | 463 kts | 122° |
| 2026-05-05 09:57 | 5.88266 | -74.96581 | 34968 ft | 463 kts | 122° |
| 2026-05-05 09:57 | 5.84772 | -74.91146 | 34948 ft | 463 kts | 122° |
| 2026-05-05 09:58 | 5.81268 | -74.85704 | 34938 ft | 464 kts | 122° |
| 2026-05-05 09:58 | 5.77769 | -74.80270 | 34929 ft | 464 kts | 122° |
| 2026-05-05 09:59 | 5.74257 | -74.74823 | 34922 ft | 464 kts | 122° |
| 2026-05-05 09:59 | 5.70741 | -74.69371 | 34921 ft | 465 kts | 122° |
| 2026-05-05 10:00 | 5.67245 | -74.63956 | 34919 ft | 465 kts | 122° |
| 2026-05-05 10:00 | 5.63727 | -74.58513 | 34922 ft | 464 kts | 122° |
| 2026-05-05 10:01 | 5.60207 | -74.53074 | 34928 ft | 464 kts | 122° |
| 2026-05-05 10:01 | 5.56690 | -74.47646 | 34931 ft | 463 kts | 122° |
| 2026-05-05 10:02 | 5.53770 | -74.43139 | 34952 ft | 463 kts | 122° |
| 2026-05-05 10:02 | 5.50257 | -74.37731 | 34958 ft | 462 kts | 122° |
| 2026-05-05 10:03 | 5.46746 | -74.32330 | 34972 ft | 461 kts | 122° |
| 2026-05-05 10:03 | 5.43246 | -74.26956 | 34994 ft | 460 kts | 122° |
| 2026-05-05 10:04 | 5.39737 | -74.21578 | 35018 ft | 459 kts | 122° |
| 2026-05-05 10:04 | 5.36236 | -74.16212 | 35037 ft | 459 kts | 122° |
| 2026-05-05 10:05 | 5.32744 | -74.10860 | 35066 ft | 458 kts | 122° |
| 2026-05-05 10:05 | 5.29279 | -74.05551 | 35086 ft | 457 kts | 122° |
| 2026-05-05 10:06 | 5.25782 | -74.00218 | 35101 ft | 457 kts | 122° |
| 2026-05-05 10:06 | 5.22285 | -73.94895 | 35120 ft | 457 kts | 122° |
| 2026-05-05 10:07 | 5.18783 | -73.89570 | 35136 ft | 457 kts | 122° |
| 2026-05-05 10:07 | 5.15282 | -73.84237 | 35149 ft | 457 kts | 122° |
| 2026-05-05 10:08 | 5.11793 | -73.78914 | 35163 ft | 457 kts | 122° |
| 2026-05-05 10:08 | 5.08305 | -73.73575 | 35160 ft | 457 kts | 122° |
| 2026-05-05 10:09 | 5.04847 | -73.68268 | 35165 ft | 458 kts | 122° |
| 2026-05-05 10:09 | 5.01358 | -73.62910 | 35174 ft | 458 kts | 122° |
| 2026-05-05 10:10 | 4.97867 | -73.57550 | 35170 ft | 459 kts | 122° |
| 2026-05-05 10:10 | 4.94365 | -73.52177 | 35152 ft | 460 kts | 122° |
| 2026-05-05 10:11 | 4.90877 | -73.46828 | 35139 ft | 461 kts | 122° |
| 2026-05-05 10:11 | 4.87363 | -73.41444 | 35135 ft | 461 kts | 122° |
| 2026-05-05 10:12 | 4.83841 | -73.36056 | 35115 ft | 461 kts | 122° |
| 2026-05-05 10:12 | 4.80324 | -73.30679 | 35096 ft | 461 kts | 122° |
| 2026-05-05 10:13 | 4.76795 | -73.25294 | 35084 ft | 461 kts | 122° |
| 2026-05-05 10:13 | 4.73269 | -73.19915 | 35067 ft | 461 kts | 122° |
| 2026-05-05 10:14 | 4.69743 | -73.14546 | 35053 ft | 460 kts | 122° |
| 2026-05-05 10:14 | 4.66219 | -73.09189 | 35043 ft | 460 kts | 122° |
| 2026-05-05 10:15 | 4.62724 | -73.03874 | 35034 ft | 459 kts | 122° |
| 2026-05-05 10:15 | 4.59209 | -72.98528 | 35019 ft | 459 kts | 122° |
| 2026-05-05 10:16 | 4.55698 | -72.93188 | 35015 ft | 458 kts | 122° |
| 2026-05-05 10:16 | 4.52193 | -72.87854 | 35011 ft | 458 kts | 122° |
| 2026-05-05 10:17 | 4.48692 | -72.82523 | 35008 ft | 457 kts | 122° |
| 2026-05-05 10:17 | 4.45194 | -72.77196 | 35006 ft | 457 kts | 122° |
| 2026-05-05 10:18 | 4.41719 | -72.71904 | 34999 ft | 457 kts | 122° |
| 2026-05-05 10:18 | 4.38227 | -72.66580 | 34999 ft | 457 kts | 122° |
| 2026-05-05 10:19 | 4.34734 | -72.61253 | 35000 ft | 457 kts | 122° |
| 2026-05-05 10:19 | 4.31239 | -72.55923 | 34999 ft | 458 kts | 122° |
| 2026-05-05 10:20 | 4.27735 | -72.50586 | 34996 ft | 459 kts | 122° |
| 2026-05-05 10:20 | 4.24222 | -72.45239 | 34996 ft | 460 kts | 122° |
| 2026-05-05 10:21 | 4.20698 | -72.39879 | 34994 ft | 461 kts | 122° |
| 2026-05-05 10:21 | 4.17167 | -72.34515 | 34989 ft | 462 kts | 122° |
| 2026-05-05 10:22 | 4.13619 | -72.29130 | 34989 ft | 463 kts | 122° |
| 2026-05-05 10:22 | 4.10091 | -72.23779 | 34988 ft | 463 kts | 122° |
| 2026-05-05 10:23 | 4.06532 | -72.18386 | 34988 ft | 464 kts | 122° |
| 2026-05-05 10:23 | 4.02969 | -72.12998 | 34985 ft | 464 kts | 122° |
| 2026-05-05 10:24 | 3.99405 | -72.07611 | 34987 ft | 463 kts | 122° |
| 2026-05-05 10:24 | 3.95847 | -72.02230 | 34983 ft | 463 kts | 122° |
| 2026-05-05 10:25 | 3.92295 | -71.96860 | 34981 ft | 462 kts | 122° |
| 2026-05-05 10:25 | 3.88741 | -71.91490 | 34980 ft | 461 kts | 122° |
| 2026-05-05 10:26 | 3.85225 | -71.86173 | 34986 ft | 460 kts | 122° |
| 2026-05-05 10:26 | 3.81693 | -71.80821 | 34987 ft | 460 kts | 122° |
| 2026-05-05 10:27 | 3.78170 | -71.75483 | 34987 ft | 459 kts | 122° |
| 2026-05-05 10:27 | 3.74647 | -71.70138 | 34986 ft | 459 kts | 122° |
| 2026-05-05 10:28 | 3.71154 | -71.64842 | 34983 ft | 459 kts | 122° |
| 2026-05-05 10:28 | 3.67630 | -71.59491 | 34987 ft | 459 kts | 122° |
| 2026-05-05 10:29 | 3.64105 | -71.54156 | 34998 ft | 459 kts | 122° |
| 2026-05-05 10:29 | 3.60570 | -71.48818 | 34989 ft | 460 kts | 122° |
| 2026-05-05 10:30 | 3.57041 | -71.43481 | 34986 ft | 460 kts | 122° |
| 2026-05-05 10:30 | 3.53514 | -71.38141 | 34984 ft | 460 kts | 122° |
| 2026-05-05 10:31 | 3.49982 | -71.32792 | 34989 ft | 460 kts | 122° |
| 2026-05-05 10:31 | 3.46459 | -71.27448 | 34988 ft | 460 kts | 122° |
| 2026-05-05 10:32 | 3.42960 | -71.22139 | 34990 ft | 460 kts | 122° |
| 2026-05-05 10:32 | 3.39438 | -71.16797 | 34991 ft | 459 kts | 122° |
| 2026-05-05 10:33 | 3.35918 | -71.11455 | 34987 ft | 459 kts | 122° |
| 2026-05-05 10:33 | 3.32399 | -71.06113 | 34988 ft | 459 kts | 122° |
| 2026-05-05 10:34 | 3.28881 | -71.00773 | 34987 ft | 459 kts | 122° |
| 2026-05-05 10:34 | 3.25382 | -70.95469 | 34977 ft | 449 kts | 123° |
| 2026-05-05 10:35 | 3.23679 | -70.92919 | 34966 ft | 432 kts | 122° |
| 2026-05-05 10:35 | 3.22053 | -70.90456 | 34971 ft | 419 kts | 121° |
| 2026-05-05 10:35 | 3.18894 | -70.85685 | 34974 ft | 405 kts | 123° |
| 2026-05-05 10:36 | 3.15817 | -70.81115 | 34983 ft | 391 kts | 123° |
| 2026-05-05 10:36 | 3.12837 | -70.76677 | 34993 ft | 378 kts | 119° |
| 2026-05-05 10:37 | 3.09977 | -70.72358 | 34984 ft | 366 kts | 123° |
| 2026-05-05 10:37 | 3.07140 | -70.68246 | 34984 ft | 353 kts | 124° |
| 2026-05-05 10:38 | 3.04456 | -70.64257 | 34993 ft | 339 kts | 119° |
| 2026-05-05 10:38 | 3.01865 | -70.60422 | 34978 ft | 326 kts | 125° |
| 2026-05-05 10:39 | 3.00606 | -70.58577 | 34981 ft | 314 kts | 122° |
| 2026-05-05 10:39 | 2.99351 | -70.56802 | 34440 ft | 318 kts | 126° |
| 2026-05-05 10:39 | 2.97883 | -70.54999 | 32406 ft | 364 kts | 131° |
| 2026-05-05 10:39 | 2.95913 | -70.53133 | 30635 ft | 410 kts | 141° |
| 2026-05-05 10:40 | 2.94329 | -70.52045 | 30475 ft | 404 kts | 149° |
| 2026-05-05 10:40 | 2.93588 | -70.51650 | 30659 ft | 392 kts | 153° |